<?xml version="1.0" encoding="UTF-8" standalone="no" ?>
<gpx xmlns="http://www.topografix.com/GPX/1/1" xmlns:xsi="http://www.w3.org/2001/XMLSchema-instance" xsi:schemaLocation="http://www.topografix.com/GPX/1/1 http://www.topografix.com/GPX/1/1/gpx.xsd" version="1.1" creator="VisuGPX - https://www.visugpx.com">
  <metadata>
    <name>Sun Trip 2019</name>
    <desc><![CDATA[Le parcours du Sun Trip 2019]]></desc>
  </metadata>
  <trk>
    <name><![CDATA[J11bis]]></name>
    <trkseg>
      <trkpt lat="45.13422" lon="7.06048">
        <ele>486</ele>
        <time>2019-04-17T11:23:31Z</time>
      </trkpt>
      <trkpt lat="45.13294" lon="7.06406">
        <ele>483</ele>
        <time>2019-04-17T11:24:31Z</time>
      </trkpt>
      <trkpt lat="45.13288" lon="7.06426">
        <ele>484</ele>
        <time>2019-04-17T11:25:31Z</time>
      </trkpt>
      <trkpt lat="45.1328" lon="7.06476">
        <ele>484</ele>
        <time>2019-04-17T11:26:31Z</time>
      </trkpt>
      <trkpt lat="45.13278" lon="7.06568">
        <ele>484</ele>
        <time>2019-04-17T11:27:31Z</time>
      </trkpt>
      <trkpt lat="45.1328" lon="7.07401">
        <ele>475</ele>
        <time>2019-04-17T11:28:31Z</time>
      </trkpt>
      <trkpt lat="45.13284" lon="7.07466">
        <ele>475</ele>
        <time>2019-04-17T11:29:31Z</time>
      </trkpt>
      <trkpt lat="45.13295" lon="7.07542">
        <ele>474</ele>
        <time>2019-04-17T11:30:31Z</time>
      </trkpt>
      <trkpt lat="45.13383" lon="7.07963">
        <ele>476</ele>
        <time>2019-04-17T11:31:31Z</time>
      </trkpt>
      <trkpt lat="45.13393" lon="7.08001">
        <ele>476</ele>
        <time>2019-04-17T11:32:31Z</time>
      </trkpt>
      <trkpt lat="45.1347" lon="7.0827">
        <ele>477</ele>
        <time>2019-04-17T11:33:31Z</time>
      </trkpt>
      <trkpt lat="45.13483" lon="7.08326">
        <ele>477</ele>
        <time>2019-04-17T11:34:31Z</time>
      </trkpt>
      <trkpt lat="45.13487" lon="7.08348">
        <ele>477</ele>
        <time>2019-04-17T11:35:31Z</time>
      </trkpt>
      <trkpt lat="45.13494" lon="7.08408">
        <ele>477</ele>
        <time>2019-04-17T11:36:31Z</time>
      </trkpt>
      <trkpt lat="45.13498" lon="7.08471">
        <ele>476</ele>
        <time>2019-04-17T11:37:31Z</time>
      </trkpt>
      <trkpt lat="45.13498" lon="7.08541">
        <ele>475</ele>
        <time>2019-04-17T11:38:31Z</time>
      </trkpt>
      <trkpt lat="45.13437" lon="7.09309">
        <ele>467</ele>
        <time>2019-04-17T11:39:31Z</time>
      </trkpt>
      <trkpt lat="45.13424" lon="7.09394">
        <ele>469</ele>
        <time>2019-04-17T11:40:31Z</time>
      </trkpt>
      <trkpt lat="45.13405" lon="7.0947">
        <ele>469</ele>
        <time>2019-04-17T11:41:31Z</time>
      </trkpt>
      <trkpt lat="45.13337" lon="7.09653">
        <ele>467</ele>
        <time>2019-04-17T11:42:31Z</time>
      </trkpt>
      <trkpt lat="45.13316" lon="7.09717">
        <ele>466</ele>
        <time>2019-04-17T11:43:31Z</time>
      </trkpt>
      <trkpt lat="45.13287" lon="7.09913">
        <ele>462</ele>
        <time>2019-04-17T11:44:31Z</time>
      </trkpt>
      <trkpt lat="45.13274" lon="7.0997">
        <ele>462</ele>
        <time>2019-04-17T11:45:31Z</time>
      </trkpt>
      <trkpt lat="45.13238" lon="7.10099">
        <ele>460</ele>
        <time>2019-04-17T11:46:31Z</time>
      </trkpt>
      <trkpt lat="45.13228" lon="7.10155">
        <ele>460</ele>
        <time>2019-04-17T11:47:31Z</time>
      </trkpt>
      <trkpt lat="45.1322" lon="7.10217">
        <ele>459</ele>
        <time>2019-04-17T11:48:31Z</time>
      </trkpt>
      <trkpt lat="45.13218" lon="7.10305">
        <ele>458</ele>
        <time>2019-04-17T11:49:31Z</time>
      </trkpt>
      <trkpt lat="45.13224" lon="7.10458">
        <ele>456</ele>
        <time>2019-04-17T11:50:31Z</time>
      </trkpt>
      <trkpt lat="45.13224" lon="7.10493">
        <ele>456</ele>
        <time>2019-04-17T11:51:31Z</time>
      </trkpt>
      <trkpt lat="45.13222" lon="7.10535">
        <ele>456</ele>
        <time>2019-04-17T11:52:31Z</time>
      </trkpt>
      <trkpt lat="45.13214" lon="7.10611">
        <ele>455</ele>
        <time>2019-04-17T11:53:31Z</time>
      </trkpt>
      <trkpt lat="45.13186" lon="7.10792">
        <ele>455</ele>
        <time>2019-04-17T11:54:31Z</time>
      </trkpt>
      <trkpt lat="45.13183" lon="7.10825">
        <ele>456</ele>
        <time>2019-04-17T11:55:31Z</time>
      </trkpt>
      <trkpt lat="45.13182" lon="7.10849">
        <ele>456</ele>
        <time>2019-04-17T11:56:31Z</time>
      </trkpt>
      <trkpt lat="45.13184" lon="7.10872">
        <ele>457</ele>
        <time>2019-04-17T11:57:31Z</time>
      </trkpt>
      <trkpt lat="45.13196" lon="7.10969">
        <ele>457</ele>
        <time>2019-04-17T11:58:31Z</time>
      </trkpt>
      <trkpt lat="45.13261" lon="7.11486">
        <ele>453</ele>
        <time>2019-04-17T11:59:31Z</time>
      </trkpt>
      <trkpt lat="45.13265" lon="7.11528">
        <ele>452</ele>
        <time>2019-04-17T12:00:31Z</time>
      </trkpt>
      <trkpt lat="45.13265" lon="7.11549">
        <ele>451</ele>
        <time>2019-04-17T12:01:31Z</time>
      </trkpt>
      <trkpt lat="45.13262" lon="7.11586">
        <ele>451</ele>
        <time>2019-04-17T12:02:31Z</time>
      </trkpt>
      <trkpt lat="45.13254" lon="7.11625">
        <ele>451</ele>
        <time>2019-04-17T12:03:31Z</time>
      </trkpt>
      <trkpt lat="45.13215" lon="7.11752">
        <ele>451</ele>
        <time>2019-04-17T12:04:31Z</time>
      </trkpt>
      <trkpt lat="45.13203" lon="7.11795">
        <ele>450</ele>
        <time>2019-04-17T12:05:31Z</time>
      </trkpt>
      <trkpt lat="45.13201" lon="7.11812">
        <ele>450</ele>
        <time>2019-04-17T12:06:31Z</time>
      </trkpt>
      <trkpt lat="45.13199" lon="7.11831">
        <ele>449</ele>
        <time>2019-04-17T12:07:31Z</time>
      </trkpt>
      <trkpt lat="45.13193" lon="7.12062">
        <ele>448</ele>
        <time>2019-04-17T12:08:31Z</time>
      </trkpt>
      <trkpt lat="45.13191" lon="7.12085">
        <ele>448</ele>
        <time>2019-04-17T12:09:31Z</time>
      </trkpt>
      <trkpt lat="45.13181" lon="7.12159">
        <ele>447</ele>
        <time>2019-04-17T12:10:31Z</time>
      </trkpt>
      <trkpt lat="45.13152" lon="7.12349">
        <ele>446</ele>
        <time>2019-04-17T12:11:31Z</time>
      </trkpt>
      <trkpt lat="45.13151" lon="7.1238">
        <ele>446</ele>
        <time>2019-04-17T12:12:31Z</time>
      </trkpt>
      <trkpt lat="45.13152" lon="7.12401">
        <ele>446</ele>
        <time>2019-04-17T12:13:31Z</time>
      </trkpt>
      <trkpt lat="45.13159" lon="7.1244">
        <ele>447</ele>
        <time>2019-04-17T12:14:31Z</time>
      </trkpt>
      <trkpt lat="45.13164" lon="7.12459">
        <ele>447</ele>
        <time>2019-04-17T12:15:31Z</time>
      </trkpt>
      <trkpt lat="45.13185" lon="7.125">
        <ele>447</ele>
        <time>2019-04-17T12:16:31Z</time>
      </trkpt>
      <trkpt lat="45.13244" lon="7.12592">
        <ele>448</ele>
        <time>2019-04-17T12:17:31Z</time>
      </trkpt>
      <trkpt lat="45.1325" lon="7.12605">
        <ele>448</ele>
        <time>2019-04-17T12:18:31Z</time>
      </trkpt>
      <trkpt lat="45.13303" lon="7.12752">
        <ele>449</ele>
        <time>2019-04-17T12:19:31Z</time>
      </trkpt>
      <trkpt lat="45.13311" lon="7.12792">
        <ele>449</ele>
        <time>2019-04-17T12:20:31Z</time>
      </trkpt>
      <trkpt lat="45.13316" lon="7.12835">
        <ele>449</ele>
        <time>2019-04-17T12:21:31Z</time>
      </trkpt>
      <trkpt lat="45.13327" lon="7.13238">
        <ele>447</ele>
        <time>2019-04-17T12:22:31Z</time>
      </trkpt>
      <trkpt lat="45.13331" lon="7.13282">
        <ele>449</ele>
        <time>2019-04-17T12:23:31Z</time>
      </trkpt>
      <trkpt lat="45.13339" lon="7.13324">
        <ele>450</ele>
        <time>2019-04-17T12:24:31Z</time>
      </trkpt>
      <trkpt lat="45.13349" lon="7.13367">
        <ele>450</ele>
        <time>2019-04-17T12:25:31Z</time>
      </trkpt>
      <trkpt lat="45.1343" lon="7.1364">
        <ele>451</ele>
        <time>2019-04-17T12:26:31Z</time>
      </trkpt>
      <trkpt lat="45.13507" lon="7.13892">
        <ele>452</ele>
        <time>2019-04-17T12:27:31Z</time>
      </trkpt>
      <trkpt lat="45.13535" lon="7.14005">
        <ele>452</ele>
        <time>2019-04-17T12:28:31Z</time>
      </trkpt>
      <trkpt lat="45.13548" lon="7.14091">
        <ele>451</ele>
        <time>2019-04-17T12:29:31Z</time>
      </trkpt>
      <trkpt lat="45.13575" lon="7.14301">
        <ele>449</ele>
        <time>2019-04-17T12:30:31Z</time>
      </trkpt>
      <trkpt lat="45.13579" lon="7.14375">
        <ele>450</ele>
        <time>2019-04-17T12:31:31Z</time>
      </trkpt>
      <trkpt lat="45.13562" lon="7.14761">
        <ele>447</ele>
        <time>2019-04-17T12:32:31Z</time>
      </trkpt>
      <trkpt lat="45.1354" lon="7.15195">
        <ele>439</ele>
        <time>2019-04-17T12:33:31Z</time>
      </trkpt>
      <trkpt lat="45.13532" lon="7.1534">
        <ele>438</ele>
        <time>2019-04-17T12:34:31Z</time>
      </trkpt>
      <trkpt lat="45.13528" lon="7.15368">
        <ele>437</ele>
        <time>2019-04-17T12:35:31Z</time>
      </trkpt>
      <trkpt lat="45.13524" lon="7.15394">
        <ele>437</ele>
        <time>2019-04-17T12:36:31Z</time>
      </trkpt>
      <trkpt lat="45.13514" lon="7.15437">
        <ele>437</ele>
        <time>2019-04-17T12:37:31Z</time>
      </trkpt>
      <trkpt lat="45.13386" lon="7.15771">
        <ele>436</ele>
        <time>2019-04-17T12:38:31Z</time>
      </trkpt>
      <trkpt lat="45.13369" lon="7.15824">
        <ele>435</ele>
        <time>2019-04-17T12:39:31Z</time>
      </trkpt>
      <trkpt lat="45.13323" lon="7.16016">
        <ele>434</ele>
        <time>2019-04-17T12:40:31Z</time>
      </trkpt>
      <trkpt lat="45.133" lon="7.16099">
        <ele>431</ele>
        <time>2019-04-17T12:41:31Z</time>
      </trkpt>
      <trkpt lat="45.13269" lon="7.16188">
        <ele>431</ele>
        <time>2019-04-17T12:42:31Z</time>
      </trkpt>
      <trkpt lat="45.13161" lon="7.16468">
        <ele>430</ele>
        <time>2019-04-17T12:43:31Z</time>
      </trkpt>
      <trkpt lat="45.13144" lon="7.16517">
        <ele>430</ele>
        <time>2019-04-17T12:44:31Z</time>
      </trkpt>
      <trkpt lat="45.13133" lon="7.1656">
        <ele>429</ele>
        <time>2019-04-17T12:45:31Z</time>
      </trkpt>
      <trkpt lat="45.13116" lon="7.1666">
        <ele>429</ele>
        <time>2019-04-17T12:46:31Z</time>
      </trkpt>
      <trkpt lat="45.13089" lon="7.16856">
        <ele>429</ele>
        <time>2019-04-17T12:47:31Z</time>
      </trkpt>
      <trkpt lat="45.13072" lon="7.16968">
        <ele>429</ele>
        <time>2019-04-17T12:48:31Z</time>
      </trkpt>
      <trkpt lat="45.13044" lon="7.17182">
        <ele>429</ele>
        <time>2019-04-17T12:49:31Z</time>
      </trkpt>
      <trkpt lat="45.1304" lon="7.17207">
        <ele>428</ele>
        <time>2019-04-17T12:50:31Z</time>
      </trkpt>
      <trkpt lat="45.13026" lon="7.17252">
        <ele>427</ele>
        <time>2019-04-17T12:51:31Z</time>
      </trkpt>
      <trkpt lat="45.1301" lon="7.17287">
        <ele>427</ele>
        <time>2019-04-17T12:52:31Z</time>
      </trkpt>
      <trkpt lat="45.13" lon="7.17305">
        <ele>427</ele>
        <time>2019-04-17T12:53:31Z</time>
      </trkpt>
      <trkpt lat="45.12756" lon="7.17622">
        <ele>427</ele>
        <time>2019-04-17T12:54:31Z</time>
      </trkpt>
      <trkpt lat="45.12739" lon="7.17648">
        <ele>428</ele>
        <time>2019-04-17T12:55:31Z</time>
      </trkpt>
      <trkpt lat="45.12721" lon="7.17686">
        <ele>429</ele>
        <time>2019-04-17T12:56:31Z</time>
      </trkpt>
      <trkpt lat="45.12712" lon="7.17713">
        <ele>430</ele>
        <time>2019-04-17T12:57:31Z</time>
      </trkpt>
      <trkpt lat="45.12704" lon="7.17754">
        <ele>431</ele>
        <time>2019-04-17T12:58:31Z</time>
      </trkpt>
      <trkpt lat="45.127" lon="7.17782">
        <ele>433</ele>
        <time>2019-04-17T12:59:31Z</time>
      </trkpt>
      <trkpt lat="45.12695" lon="7.17969">
        <ele>436</ele>
        <time>2019-04-17T13:00:31Z</time>
      </trkpt>
      <trkpt lat="45.12691" lon="7.18012">
        <ele>437</ele>
        <time>2019-04-17T13:01:31Z</time>
      </trkpt>
      <trkpt lat="45.12684" lon="7.18073">
        <ele>438</ele>
        <time>2019-04-17T13:02:31Z</time>
      </trkpt>
      <trkpt lat="45.12662" lon="7.18197">
        <ele>439</ele>
        <time>2019-04-17T13:03:31Z</time>
      </trkpt>
      <trkpt lat="45.12652" lon="7.18234">
        <ele>439</ele>
        <time>2019-04-17T13:04:31Z</time>
      </trkpt>
      <trkpt lat="45.12646" lon="7.18248">
        <ele>439</ele>
        <time>2019-04-17T13:05:31Z</time>
      </trkpt>
      <trkpt lat="45.1263" lon="7.18271">
        <ele>439</ele>
        <time>2019-04-17T13:06:31Z</time>
      </trkpt>
      <trkpt lat="45.12496" lon="7.18419">
        <ele>442</ele>
        <time>2019-04-17T13:07:31Z</time>
      </trkpt>
      <trkpt lat="45.12476" lon="7.18446">
        <ele>443</ele>
        <time>2019-04-17T13:08:31Z</time>
      </trkpt>
      <trkpt lat="45.12468" lon="7.18461">
        <ele>442</ele>
        <time>2019-04-17T13:09:31Z</time>
      </trkpt>
      <trkpt lat="45.12456" lon="7.18496">
        <ele>441</ele>
        <time>2019-04-17T13:10:31Z</time>
      </trkpt>
      <trkpt lat="45.12451" lon="7.18517">
        <ele>439</ele>
        <time>2019-04-17T13:11:31Z</time>
      </trkpt>
      <trkpt lat="45.12449" lon="7.18565">
        <ele>437</ele>
        <time>2019-04-17T13:12:31Z</time>
      </trkpt>
      <trkpt lat="45.12446" lon="7.1884">
        <ele>440</ele>
        <time>2019-04-17T13:13:31Z</time>
      </trkpt>
      <trkpt lat="45.12442" lon="7.18894">
        <ele>441</ele>
        <time>2019-04-17T13:14:31Z</time>
      </trkpt>
      <trkpt lat="45.12433" lon="7.18943">
        <ele>440</ele>
        <time>2019-04-17T13:15:31Z</time>
      </trkpt>
      <trkpt lat="45.1241" lon="7.19039">
        <ele>436</ele>
        <time>2019-04-17T13:16:31Z</time>
      </trkpt>
      <trkpt lat="45.1239" lon="7.19099">
        <ele>434</ele>
        <time>2019-04-17T13:17:31Z</time>
      </trkpt>
      <trkpt lat="45.12301" lon="7.19335">
        <ele>425</ele>
        <time>2019-04-17T13:18:31Z</time>
      </trkpt>
      <trkpt lat="45.12283" lon="7.19373">
        <ele>425</ele>
        <time>2019-04-17T13:19:31Z</time>
      </trkpt>
      <trkpt lat="45.12223" lon="7.19475">
        <ele>425</ele>
        <time>2019-04-17T13:20:31Z</time>
      </trkpt>
      <trkpt lat="45.12197" lon="7.19523">
        <ele>423</ele>
        <time>2019-04-17T13:21:31Z</time>
      </trkpt>
      <trkpt lat="45.12179" lon="7.19562">
        <ele>421</ele>
        <time>2019-04-17T13:22:31Z</time>
      </trkpt>
      <trkpt lat="45.12154" lon="7.19624">
        <ele>420</ele>
        <time>2019-04-17T13:23:31Z</time>
      </trkpt>
      <trkpt lat="45.12143" lon="7.19664">
        <ele>419</ele>
        <time>2019-04-17T13:24:31Z</time>
      </trkpt>
      <trkpt lat="45.12137" lon="7.19704">
        <ele>420</ele>
        <time>2019-04-17T13:25:31Z</time>
      </trkpt>
      <trkpt lat="45.12137" lon="7.19722">
        <ele>420</ele>
        <time>2019-04-17T13:26:31Z</time>
      </trkpt>
      <trkpt lat="45.12144" lon="7.1982">
        <ele>421</ele>
        <time>2019-04-17T13:27:31Z</time>
      </trkpt>
      <trkpt lat="45.12156" lon="7.19937">
        <ele>421</ele>
        <time>2019-04-17T13:28:31Z</time>
      </trkpt>
      <trkpt lat="45.12155" lon="7.1997">
        <ele>420</ele>
        <time>2019-04-17T13:29:31Z</time>
      </trkpt>
      <trkpt lat="45.12148" lon="7.20019">
        <ele>421</ele>
        <time>2019-04-17T13:30:31Z</time>
      </trkpt>
      <trkpt lat="45.12017" lon="7.20767">
        <ele>414</ele>
        <time>2019-04-17T13:31:31Z</time>
      </trkpt>
      <trkpt lat="45.11987" lon="7.20896">
        <ele>416</ele>
        <time>2019-04-17T13:32:31Z</time>
      </trkpt>
      <trkpt lat="45.11976" lon="7.20931">
        <ele>416</ele>
        <time>2019-04-17T13:33:31Z</time>
      </trkpt>
      <trkpt lat="45.11926" lon="7.2105">
        <ele>412</ele>
        <time>2019-04-17T13:34:31Z</time>
      </trkpt>
      <trkpt lat="45.11919" lon="7.21073">
        <ele>410</ele>
        <time>2019-04-17T13:35:31Z</time>
      </trkpt>
      <trkpt lat="45.11913" lon="7.21103">
        <ele>409</ele>
        <time>2019-04-17T13:36:31Z</time>
      </trkpt>
      <trkpt lat="45.11887" lon="7.21262">
        <ele>406</ele>
        <time>2019-04-17T13:37:31Z</time>
      </trkpt>
      <trkpt lat="45.1188" lon="7.21343">
        <ele>404</ele>
        <time>2019-04-17T13:38:31Z</time>
      </trkpt>
      <trkpt lat="45.11872" lon="7.21484">
        <ele>402</ele>
        <time>2019-04-17T13:39:31Z</time>
      </trkpt>
      <trkpt lat="45.11872" lon="7.21516">
        <ele>402</ele>
        <time>2019-04-17T13:40:31Z</time>
      </trkpt>
      <trkpt lat="45.11875" lon="7.21575">
        <ele>401</ele>
        <time>2019-04-17T13:41:31Z</time>
      </trkpt>
      <trkpt lat="45.11928" lon="7.22057">
        <ele>406</ele>
        <time>2019-04-17T13:42:31Z</time>
      </trkpt>
      <trkpt lat="45.11932" lon="7.2213">
        <ele>407</ele>
        <time>2019-04-17T13:43:31Z</time>
      </trkpt>
      <trkpt lat="45.11932" lon="7.22364">
        <ele>406</ele>
        <time>2019-04-17T13:44:31Z</time>
      </trkpt>
      <trkpt lat="45.11944" lon="7.22564">
        <ele>405</ele>
        <time>2019-04-17T13:45:31Z</time>
      </trkpt>
      <trkpt lat="45.1195" lon="7.22694">
        <ele>404</ele>
        <time>2019-04-17T13:46:31Z</time>
      </trkpt>
      <trkpt lat="45.11935" lon="7.23076">
        <ele>402</ele>
        <time>2019-04-17T13:47:31Z</time>
      </trkpt>
      <trkpt lat="45.11931" lon="7.23102">
        <ele>402</ele>
        <time>2019-04-17T13:48:31Z</time>
      </trkpt>
      <trkpt lat="45.11928" lon="7.23111">
        <ele>403</ele>
        <time>2019-04-17T13:49:31Z</time>
      </trkpt>
      <trkpt lat="45.11913" lon="7.23134">
        <ele>403</ele>
        <time>2019-04-17T13:50:31Z</time>
      </trkpt>
      <trkpt lat="45.11912" lon="7.23142">
        <ele>403</ele>
        <time>2019-04-17T13:51:31Z</time>
      </trkpt>
      <trkpt lat="45.11913" lon="7.23158">
        <ele>403</ele>
        <time>2019-04-17T13:52:31Z</time>
      </trkpt>
      <trkpt lat="45.11921" lon="7.23169">
        <ele>403</ele>
        <time>2019-04-17T13:53:31Z</time>
      </trkpt>
      <trkpt lat="45.11924" lon="7.23193">
        <ele>402</ele>
        <time>2019-04-17T13:54:31Z</time>
      </trkpt>
      <trkpt lat="45.11925" lon="7.23209">
        <ele>402</ele>
        <time>2019-04-17T13:55:31Z</time>
      </trkpt>
      <trkpt lat="45.11919" lon="7.23235">
        <ele>401</ele>
        <time>2019-04-17T13:56:31Z</time>
      </trkpt>
      <trkpt lat="45.11859" lon="7.23428">
        <ele>398</ele>
        <time>2019-04-17T13:57:31Z</time>
      </trkpt>
      <trkpt lat="45.11841" lon="7.23469">
        <ele>399</ele>
        <time>2019-04-17T13:58:31Z</time>
      </trkpt>
      <trkpt lat="45.11752" lon="7.23614">
        <ele>396</ele>
        <time>2019-04-17T13:59:31Z</time>
      </trkpt>
      <trkpt lat="45.11707" lon="7.23691">
        <ele>395</ele>
        <time>2019-04-17T14:00:31Z</time>
      </trkpt>
      <trkpt lat="45.11592" lon="7.23878">
        <ele>394</ele>
        <time>2019-04-17T14:01:31Z</time>
      </trkpt>
      <trkpt lat="45.1157" lon="7.23919">
        <ele>394</ele>
        <time>2019-04-17T14:02:31Z</time>
      </trkpt>
      <trkpt lat="45.11533" lon="7.23973">
        <ele>394</ele>
        <time>2019-04-17T14:03:31Z</time>
      </trkpt>
      <trkpt lat="45.11506" lon="7.2402">
        <ele>394</ele>
        <time>2019-04-17T14:04:31Z</time>
      </trkpt>
      <trkpt lat="45.11486" lon="7.2406">
        <ele>394</ele>
        <time>2019-04-17T14:05:31Z</time>
      </trkpt>
      <trkpt lat="45.1146" lon="7.2412">
        <ele>393</ele>
        <time>2019-04-17T14:06:31Z</time>
      </trkpt>
      <trkpt lat="45.11417" lon="7.24241">
        <ele>391</ele>
        <time>2019-04-17T14:07:31Z</time>
      </trkpt>
      <trkpt lat="45.10974" lon="7.25545">
        <ele>386</ele>
        <time>2019-04-17T14:08:31Z</time>
      </trkpt>
      <trkpt lat="45.1088" lon="7.25817">
        <ele>387</ele>
        <time>2019-04-17T14:09:31Z</time>
      </trkpt>
      <trkpt lat="45.10807" lon="7.26048">
        <ele>386</ele>
        <time>2019-04-17T14:10:31Z</time>
      </trkpt>
      <trkpt lat="45.10728" lon="7.26268">
        <ele>385</ele>
        <time>2019-04-17T14:11:31Z</time>
      </trkpt>
      <trkpt lat="45.10723" lon="7.26266">
        <ele>385</ele>
        <time>2019-04-17T14:12:31Z</time>
      </trkpt>
      <trkpt lat="45.10714" lon="7.26268">
        <ele>385</ele>
        <time>2019-04-17T14:13:31Z</time>
      </trkpt>
      <trkpt lat="45.10708" lon="7.26277">
        <ele>385</ele>
        <time>2019-04-17T14:14:31Z</time>
      </trkpt>
      <trkpt lat="45.10706" lon="7.26283">
        <ele>385</ele>
        <time>2019-04-17T14:15:31Z</time>
      </trkpt>
      <trkpt lat="45.10706" lon="7.26289">
        <ele>385</ele>
        <time>2019-04-17T14:16:31Z</time>
      </trkpt>
      <trkpt lat="45.10709" lon="7.26301">
        <ele>385</ele>
        <time>2019-04-17T14:17:31Z</time>
      </trkpt>
      <trkpt lat="45.10716" lon="7.26308">
        <ele>385</ele>
        <time>2019-04-17T14:18:31Z</time>
      </trkpt>
      <trkpt lat="45.10723" lon="7.26309">
        <ele>385</ele>
        <time>2019-04-17T14:19:31Z</time>
      </trkpt>
      <trkpt lat="45.1086" lon="7.2733">
        <ele>382</ele>
        <time>2019-04-17T14:20:31Z</time>
      </trkpt>
      <trkpt lat="45.10863" lon="7.27366">
        <ele>383</ele>
        <time>2019-04-17T14:21:31Z</time>
      </trkpt>
      <trkpt lat="45.10864" lon="7.27417">
        <ele>383</ele>
        <time>2019-04-17T14:22:31Z</time>
      </trkpt>
      <trkpt lat="45.10858" lon="7.2758">
        <ele>384</ele>
        <time>2019-04-17T14:23:31Z</time>
      </trkpt>
      <trkpt lat="45.10852" lon="7.27656">
        <ele>383</ele>
        <time>2019-04-17T14:24:31Z</time>
      </trkpt>
      <trkpt lat="45.10848" lon="7.27685">
        <ele>383</ele>
        <time>2019-04-17T14:25:31Z</time>
      </trkpt>
      <trkpt lat="45.10807" lon="7.27854">
        <ele>380</ele>
        <time>2019-04-17T14:26:31Z</time>
      </trkpt>
      <trkpt lat="45.10802" lon="7.27883">
        <ele>380</ele>
        <time>2019-04-17T14:27:31Z</time>
      </trkpt>
      <trkpt lat="45.10796" lon="7.27932">
        <ele>380</ele>
        <time>2019-04-17T14:28:31Z</time>
      </trkpt>
      <trkpt lat="45.10754" lon="7.28888">
        <ele>377</ele>
        <time>2019-04-17T14:29:31Z</time>
      </trkpt>
      <trkpt lat="45.10747" lon="7.28889">
        <ele>377</ele>
        <time>2019-04-17T14:30:31Z</time>
      </trkpt>
      <trkpt lat="45.10741" lon="7.28893">
        <ele>377</ele>
        <time>2019-04-17T14:31:31Z</time>
      </trkpt>
      <trkpt lat="45.10737" lon="7.28899">
        <ele>377</ele>
        <time>2019-04-17T14:32:31Z</time>
      </trkpt>
      <trkpt lat="45.10734" lon="7.28907">
        <ele>377</ele>
        <time>2019-04-17T14:33:31Z</time>
      </trkpt>
      <trkpt lat="45.10733" lon="7.28917">
        <ele>377</ele>
        <time>2019-04-17T14:34:31Z</time>
      </trkpt>
      <trkpt lat="45.10737" lon="7.28932">
        <ele>377</ele>
        <time>2019-04-17T14:35:31Z</time>
      </trkpt>
      <trkpt lat="45.10746" lon="7.2894">
        <ele>377</ele>
        <time>2019-04-17T14:36:31Z</time>
      </trkpt>
      <trkpt lat="45.10751" lon="7.28942">
        <ele>377</ele>
        <time>2019-04-17T14:37:31Z</time>
      </trkpt>
      <trkpt lat="45.10716" lon="7.29749">
        <ele>373</ele>
        <time>2019-04-17T14:38:31Z</time>
      </trkpt>
      <trkpt lat="45.10658" lon="7.30941">
        <ele>370</ele>
        <time>2019-04-17T14:39:31Z</time>
      </trkpt>
      <trkpt lat="45.10651" lon="7.31052">
        <ele>370</ele>
        <time>2019-04-17T14:40:31Z</time>
      </trkpt>
      <trkpt lat="45.10648" lon="7.31085">
        <ele>369</ele>
        <time>2019-04-17T14:41:31Z</time>
      </trkpt>
      <trkpt lat="45.10642" lon="7.31108">
        <ele>369</ele>
        <time>2019-04-17T14:42:31Z</time>
      </trkpt>
      <trkpt lat="45.10637" lon="7.31112">
        <ele>370</ele>
        <time>2019-04-17T14:43:31Z</time>
      </trkpt>
      <trkpt lat="45.10632" lon="7.31119">
        <ele>370</ele>
        <time>2019-04-17T14:44:31Z</time>
      </trkpt>
      <trkpt lat="45.1063" lon="7.31127">
        <ele>370</ele>
        <time>2019-04-17T14:45:31Z</time>
      </trkpt>
      <trkpt lat="45.10629" lon="7.31136">
        <ele>370</ele>
        <time>2019-04-17T14:46:31Z</time>
      </trkpt>
      <trkpt lat="45.10631" lon="7.31144">
        <ele>370</ele>
        <time>2019-04-17T14:47:31Z</time>
      </trkpt>
      <trkpt lat="45.10635" lon="7.31151">
        <ele>370</ele>
        <time>2019-04-17T14:48:31Z</time>
      </trkpt>
      <trkpt lat="45.1064" lon="7.31156">
        <ele>370</ele>
        <time>2019-04-17T14:49:31Z</time>
      </trkpt>
      <trkpt lat="45.10642" lon="7.31169">
        <ele>370</ele>
        <time>2019-04-17T14:50:31Z</time>
      </trkpt>
      <trkpt lat="45.10643" lon="7.31213">
        <ele>369</ele>
        <time>2019-04-17T14:51:31Z</time>
      </trkpt>
      <trkpt lat="45.10622" lon="7.31639">
        <ele>369</ele>
        <time>2019-04-17T14:52:31Z</time>
      </trkpt>
      <trkpt lat="45.10627" lon="7.3164">
        <ele>369</ele>
        <time>2019-04-17T14:53:31Z</time>
      </trkpt>
      <trkpt lat="45.1062" lon="7.31763">
        <ele>368</ele>
        <time>2019-04-17T14:54:31Z</time>
      </trkpt>
      <trkpt lat="45.10582" lon="7.3251">
        <ele>367</ele>
        <time>2019-04-17T14:55:31Z</time>
      </trkpt>
      <trkpt lat="45.10571" lon="7.32508">
        <ele>367</ele>
        <time>2019-04-17T14:56:31Z</time>
      </trkpt>
      <trkpt lat="45.10569" lon="7.32552">
        <ele>367</ele>
        <time>2019-04-17T14:57:31Z</time>
      </trkpt>
      <trkpt lat="45.10543" lon="7.33034">
        <ele>366</ele>
        <time>2019-04-17T14:58:31Z</time>
      </trkpt>
      <trkpt lat="45.10548" lon="7.33034">
        <ele>367</ele>
        <time>2019-04-17T14:59:31Z</time>
      </trkpt>
      <trkpt lat="45.10538" lon="7.33223">
        <ele>364</ele>
        <time>2019-04-17T15:00:31Z</time>
      </trkpt>
      <trkpt lat="45.10504" lon="7.33834">
        <ele>361</ele>
        <time>2019-04-17T15:01:31Z</time>
      </trkpt>
      <trkpt lat="45.10461" lon="7.34643">
        <ele>361</ele>
        <time>2019-04-17T15:02:31Z</time>
      </trkpt>
      <trkpt lat="45.10448" lon="7.3486">
        <ele>360</ele>
        <time>2019-04-17T15:03:31Z</time>
      </trkpt>
      <trkpt lat="45.10443" lon="7.34921">
        <ele>361</ele>
        <time>2019-04-17T15:04:31Z</time>
      </trkpt>
      <trkpt lat="45.10423" lon="7.34965">
        <ele>362</ele>
        <time>2019-04-17T15:05:31Z</time>
      </trkpt>
      <trkpt lat="45.10406" lon="7.34993">
        <ele>362</ele>
        <time>2019-04-17T15:06:31Z</time>
      </trkpt>
      <trkpt lat="45.10168" lon="7.35308">
        <ele>360</ele>
        <time>2019-04-17T15:07:31Z</time>
      </trkpt>
      <trkpt lat="45.10053" lon="7.35456">
        <ele>361</ele>
        <time>2019-04-17T15:08:31Z</time>
      </trkpt>
      <trkpt lat="45.10043" lon="7.35472">
        <ele>361</ele>
        <time>2019-04-17T15:09:31Z</time>
      </trkpt>
      <trkpt lat="45.10072" lon="7.35519">
        <ele>358</ele>
        <time>2019-04-17T15:10:31Z</time>
      </trkpt>
      <trkpt lat="45.10075" lon="7.3554">
        <ele>358</ele>
        <time>2019-04-17T15:11:31Z</time>
      </trkpt>
      <trkpt lat="45.10072" lon="7.35552">
        <ele>358</ele>
        <time>2019-04-17T15:12:31Z</time>
      </trkpt>
      <trkpt lat="45.10058" lon="7.35588">
        <ele>358</ele>
        <time>2019-04-17T15:13:31Z</time>
      </trkpt>
      <trkpt lat="45.10049" lon="7.35626">
        <ele>358</ele>
        <time>2019-04-17T15:14:31Z</time>
      </trkpt>
      <trkpt lat="45.10034" lon="7.35682">
        <ele>358</ele>
        <time>2019-04-17T15:15:31Z</time>
      </trkpt>
      <trkpt lat="45.10031" lon="7.35686">
        <ele>358</ele>
        <time>2019-04-17T15:16:31Z</time>
      </trkpt>
      <trkpt lat="45.10026" lon="7.35688">
        <ele>358</ele>
        <time>2019-04-17T15:17:31Z</time>
      </trkpt>
      <trkpt lat="45.10001" lon="7.35676">
        <ele>358</ele>
        <time>2019-04-17T15:18:31Z</time>
      </trkpt>
      <trkpt lat="45.09981" lon="7.35657">
        <ele>359</ele>
        <time>2019-04-17T15:19:31Z</time>
      </trkpt>
      <trkpt lat="45.09958" lon="7.35628">
        <ele>362</ele>
        <time>2019-04-17T15:20:31Z</time>
      </trkpt>
      <trkpt lat="45.0994" lon="7.35609">
        <ele>364</ele>
        <time>2019-04-17T15:21:31Z</time>
      </trkpt>
      <trkpt lat="45.09918" lon="7.35576">
        <ele>369</ele>
        <time>2019-04-17T15:22:31Z</time>
      </trkpt>
      <trkpt lat="45.09906" lon="7.35601">
        <ele>367</ele>
        <time>2019-04-17T15:23:31Z</time>
      </trkpt>
      <trkpt lat="45.09888" lon="7.3559">
        <ele>368</ele>
        <time>2019-04-17T15:24:31Z</time>
      </trkpt>
      <trkpt lat="45.0988" lon="7.35608">
        <ele>367</ele>
        <time>2019-04-17T15:25:31Z</time>
      </trkpt>
      <trkpt lat="45.09839" lon="7.35644">
        <ele>365</ele>
        <time>2019-04-17T15:26:31Z</time>
      </trkpt>
      <trkpt lat="45.09829" lon="7.35644">
        <ele>366</ele>
        <time>2019-04-17T15:27:31Z</time>
      </trkpt>
      <trkpt lat="45.09772" lon="7.35699">
        <ele>366</ele>
        <time>2019-04-17T15:28:31Z</time>
      </trkpt>
      <trkpt lat="45.09755" lon="7.3572">
        <ele>363</ele>
        <time>2019-04-17T15:29:31Z</time>
      </trkpt>
      <trkpt lat="45.09732" lon="7.35739">
        <ele>362</ele>
        <time>2019-04-17T15:30:31Z</time>
      </trkpt>
      <trkpt lat="45.09712" lon="7.35745">
        <ele>362</ele>
        <time>2019-04-17T15:31:31Z</time>
      </trkpt>
      <trkpt lat="45.09683" lon="7.35764">
        <ele>361</ele>
        <time>2019-04-17T15:32:31Z</time>
      </trkpt>
      <trkpt lat="45.09658" lon="7.35771">
        <ele>361</ele>
        <time>2019-04-17T15:33:31Z</time>
      </trkpt>
      <trkpt lat="45.09644" lon="7.35788">
        <ele>360</ele>
        <time>2019-04-17T15:34:31Z</time>
      </trkpt>
      <trkpt lat="45.09645" lon="7.35802">
        <ele>358</ele>
        <time>2019-04-17T15:35:31Z</time>
      </trkpt>
      <trkpt lat="45.09577" lon="7.35845">
        <ele>355</ele>
        <time>2019-04-17T15:36:31Z</time>
      </trkpt>
      <trkpt lat="45.09604" lon="7.35939">
        <ele>354</ele>
        <time>2019-04-17T15:37:31Z</time>
      </trkpt>
      <trkpt lat="45.0956" lon="7.35976">
        <ele>353</ele>
        <time>2019-04-17T15:38:31Z</time>
      </trkpt>
      <trkpt lat="45.09549" lon="7.35991">
        <ele>353</ele>
        <time>2019-04-17T15:39:31Z</time>
      </trkpt>
      <trkpt lat="45.09533" lon="7.36026">
        <ele>353</ele>
        <time>2019-04-17T15:40:31Z</time>
      </trkpt>
      <trkpt lat="45.09519" lon="7.36048">
        <ele>353</ele>
        <time>2019-04-17T15:41:31Z</time>
      </trkpt>
      <trkpt lat="45.09506" lon="7.36063">
        <ele>353</ele>
        <time>2019-04-17T15:42:31Z</time>
      </trkpt>
      <trkpt lat="45.09481" lon="7.36083">
        <ele>354</ele>
        <time>2019-04-17T15:43:31Z</time>
      </trkpt>
      <trkpt lat="45.09465" lon="7.3609">
        <ele>354</ele>
        <time>2019-04-17T15:44:31Z</time>
      </trkpt>
      <trkpt lat="45.09451" lon="7.36094">
        <ele>355</ele>
        <time>2019-04-17T15:45:31Z</time>
      </trkpt>
      <trkpt lat="45.0944" lon="7.36093">
        <ele>355</ele>
        <time>2019-04-17T15:46:31Z</time>
      </trkpt>
      <trkpt lat="45.09403" lon="7.36036">
        <ele>357</ele>
        <time>2019-04-17T15:47:31Z</time>
      </trkpt>
      <trkpt lat="45.09396" lon="7.3603">
        <ele>357</ele>
        <time>2019-04-17T15:48:31Z</time>
      </trkpt>
      <trkpt lat="45.09389" lon="7.36028">
        <ele>357</ele>
        <time>2019-04-17T15:49:31Z</time>
      </trkpt>
      <trkpt lat="45.09383" lon="7.36031">
        <ele>357</ele>
        <time>2019-04-17T15:50:31Z</time>
      </trkpt>
      <trkpt lat="45.09332" lon="7.3608">
        <ele>353</ele>
        <time>2019-04-17T15:51:31Z</time>
      </trkpt>
      <trkpt lat="45.09314" lon="7.36095">
        <ele>353</ele>
        <time>2019-04-17T15:52:31Z</time>
      </trkpt>
      <trkpt lat="45.09294" lon="7.36106">
        <ele>353</ele>
        <time>2019-04-17T15:53:31Z</time>
      </trkpt>
      <trkpt lat="45.09277" lon="7.36113">
        <ele>353</ele>
        <time>2019-04-17T15:54:31Z</time>
      </trkpt>
      <trkpt lat="45.09255" lon="7.36113">
        <ele>353</ele>
        <time>2019-04-17T15:55:31Z</time>
      </trkpt>
      <trkpt lat="45.09234" lon="7.36107">
        <ele>355</ele>
        <time>2019-04-17T15:56:31Z</time>
      </trkpt>
      <trkpt lat="45.09187" lon="7.3616">
        <ele>355</ele>
        <time>2019-04-17T15:57:31Z</time>
      </trkpt>
      <trkpt lat="45.09175" lon="7.36182">
        <ele>355</ele>
        <time>2019-04-17T15:58:31Z</time>
      </trkpt>
      <trkpt lat="45.09129" lon="7.36294">
        <ele>353</ele>
        <time>2019-04-17T15:59:31Z</time>
      </trkpt>
      <trkpt lat="45.09126" lon="7.36307">
        <ele>353</ele>
        <time>2019-04-17T16:00:31Z</time>
      </trkpt>
      <trkpt lat="45.09098" lon="7.36319">
        <ele>352</ele>
        <time>2019-04-17T16:01:31Z</time>
      </trkpt>
      <trkpt lat="45.09086" lon="7.36327">
        <ele>352</ele>
        <time>2019-04-17T16:02:31Z</time>
      </trkpt>
      <trkpt lat="45.09032" lon="7.36381">
        <ele>351</ele>
        <time>2019-04-17T16:03:31Z</time>
      </trkpt>
      <trkpt lat="45.08974" lon="7.36319">
        <ele>354</ele>
        <time>2019-04-17T16:04:31Z</time>
      </trkpt>
      <trkpt lat="45.08963" lon="7.3631">
        <ele>356</ele>
        <time>2019-04-17T16:05:31Z</time>
      </trkpt>
      <trkpt lat="45.08949" lon="7.36302">
        <ele>358</ele>
        <time>2019-04-17T16:06:31Z</time>
      </trkpt>
      <trkpt lat="45.08934" lon="7.36301">
        <ele>359</ele>
        <time>2019-04-17T16:07:31Z</time>
      </trkpt>
      <trkpt lat="45.08927" lon="7.36304">
        <ele>360</ele>
        <time>2019-04-17T16:08:31Z</time>
      </trkpt>
      <trkpt lat="45.08881" lon="7.36339">
        <ele>362</ele>
        <time>2019-04-17T16:09:31Z</time>
      </trkpt>
      <trkpt lat="45.08804" lon="7.36382">
        <ele>371</ele>
        <time>2019-04-17T16:10:31Z</time>
      </trkpt>
      <trkpt lat="45.08789" lon="7.36398">
        <ele>370</ele>
        <time>2019-04-17T16:11:31Z</time>
      </trkpt>
      <trkpt lat="45.08782" lon="7.36411">
        <ele>368</ele>
        <time>2019-04-17T16:12:31Z</time>
      </trkpt>
      <trkpt lat="45.08701" lon="7.36625">
        <ele>356</ele>
        <time>2019-04-17T16:13:31Z</time>
      </trkpt>
      <trkpt lat="45.08688" lon="7.36653">
        <ele>356</ele>
        <time>2019-04-17T16:14:31Z</time>
      </trkpt>
      <trkpt lat="45.08621" lon="7.36761">
        <ele>357</ele>
        <time>2019-04-17T16:15:31Z</time>
      </trkpt>
      <trkpt lat="45.08613" lon="7.36779">
        <ele>357</ele>
        <time>2019-04-17T16:16:31Z</time>
      </trkpt>
      <trkpt lat="45.08598" lon="7.36839">
        <ele>355</ele>
        <time>2019-04-17T16:17:31Z</time>
      </trkpt>
      <trkpt lat="45.08581" lon="7.36888">
        <ele>355</ele>
        <time>2019-04-17T16:18:31Z</time>
      </trkpt>
      <trkpt lat="45.08574" lon="7.36905">
        <ele>355</ele>
        <time>2019-04-17T16:19:31Z</time>
      </trkpt>
      <trkpt lat="45.08533" lon="7.3695">
        <ele>355</ele>
        <time>2019-04-17T16:20:31Z</time>
      </trkpt>
      <trkpt lat="45.08506" lon="7.36966">
        <ele>354</ele>
        <time>2019-04-17T16:21:31Z</time>
      </trkpt>
      <trkpt lat="45.08453" lon="7.36985">
        <ele>353</ele>
        <time>2019-04-17T16:22:31Z</time>
      </trkpt>
      <trkpt lat="45.08409" lon="7.36998">
        <ele>353</ele>
        <time>2019-04-17T16:23:31Z</time>
      </trkpt>
      <trkpt lat="45.08337" lon="7.37006">
        <ele>356</ele>
        <time>2019-04-17T16:24:31Z</time>
      </trkpt>
      <trkpt lat="45.08261" lon="7.37006">
        <ele>356</ele>
        <time>2019-04-17T16:25:31Z</time>
      </trkpt>
      <trkpt lat="45.08221" lon="7.37009">
        <ele>355</ele>
        <time>2019-04-17T16:26:31Z</time>
      </trkpt>
      <trkpt lat="45.08147" lon="7.3701">
        <ele>354</ele>
        <time>2019-04-17T16:27:31Z</time>
      </trkpt>
      <trkpt lat="45.08119" lon="7.37007">
        <ele>354</ele>
        <time>2019-04-17T16:28:31Z</time>
      </trkpt>
      <trkpt lat="45.08049" lon="7.36991">
        <ele>354</ele>
        <time>2019-04-17T16:29:31Z</time>
      </trkpt>
      <trkpt lat="45.08026" lon="7.36992">
        <ele>353</ele>
        <time>2019-04-17T16:30:31Z</time>
      </trkpt>
      <trkpt lat="45.07951" lon="7.37003">
        <ele>352</ele>
        <time>2019-04-17T16:31:31Z</time>
      </trkpt>
      <trkpt lat="45.07929" lon="7.37002">
        <ele>353</ele>
        <time>2019-04-17T16:32:31Z</time>
      </trkpt>
      <trkpt lat="45.07905" lon="7.36999">
        <ele>353</ele>
        <time>2019-04-17T16:33:31Z</time>
      </trkpt>
      <trkpt lat="45.0788" lon="7.36978">
        <ele>358</ele>
        <time>2019-04-17T16:34:31Z</time>
      </trkpt>
      <trkpt lat="45.07849" lon="7.36972">
        <ele>360</ele>
        <time>2019-04-17T16:35:31Z</time>
      </trkpt>
      <trkpt lat="45.07782" lon="7.36985">
        <ele>359</ele>
        <time>2019-04-17T16:36:31Z</time>
      </trkpt>
      <trkpt lat="45.07774" lon="7.36983">
        <ele>360</ele>
        <time>2019-04-17T16:37:31Z</time>
      </trkpt>
      <trkpt lat="45.0774" lon="7.36959">
        <ele>366</ele>
        <time>2019-04-17T16:38:31Z</time>
      </trkpt>
      <trkpt lat="45.07732" lon="7.36955">
        <ele>367</ele>
        <time>2019-04-17T16:39:31Z</time>
      </trkpt>
      <trkpt lat="45.07719" lon="7.36953">
        <ele>368</ele>
        <time>2019-04-17T16:40:31Z</time>
      </trkpt>
      <trkpt lat="45.07704" lon="7.36954">
        <ele>368</ele>
        <time>2019-04-17T16:41:31Z</time>
      </trkpt>
      <trkpt lat="45.0763" lon="7.36975">
        <ele>367</ele>
        <time>2019-04-17T16:42:31Z</time>
      </trkpt>
      <trkpt lat="45.07558" lon="7.37014">
        <ele>363</ele>
        <time>2019-04-17T16:43:31Z</time>
      </trkpt>
      <trkpt lat="45.07548" lon="7.37016">
        <ele>363</ele>
        <time>2019-04-17T16:44:31Z</time>
      </trkpt>
      <trkpt lat="45.07539" lon="7.37013">
        <ele>363</ele>
        <time>2019-04-17T16:45:31Z</time>
      </trkpt>
      <trkpt lat="45.07529" lon="7.37007">
        <ele>364</ele>
        <time>2019-04-17T16:46:31Z</time>
      </trkpt>
      <trkpt lat="45.07456" lon="7.36954">
        <ele>366</ele>
        <time>2019-04-17T16:47:31Z</time>
      </trkpt>
      <trkpt lat="45.07394" lon="7.36946">
        <ele>363</ele>
        <time>2019-04-17T16:48:31Z</time>
      </trkpt>
      <trkpt lat="45.0736" lon="7.36947">
        <ele>363</ele>
        <time>2019-04-17T16:49:31Z</time>
      </trkpt>
      <trkpt lat="45.07287" lon="7.3697">
        <ele>364</ele>
        <time>2019-04-17T16:50:31Z</time>
      </trkpt>
      <trkpt lat="45.07227" lon="7.37026">
        <ele>360</ele>
        <time>2019-04-17T16:51:31Z</time>
      </trkpt>
      <trkpt lat="45.07168" lon="7.37066">
        <ele>362</ele>
        <time>2019-04-17T16:52:31Z</time>
      </trkpt>
      <trkpt lat="45.07126" lon="7.37102">
        <ele>366</ele>
        <time>2019-04-17T16:53:31Z</time>
      </trkpt>
      <trkpt lat="45.06997" lon="7.37242">
        <ele>365</ele>
        <time>2019-04-17T16:54:31Z</time>
      </trkpt>
      <trkpt lat="45.06936" lon="7.37323">
        <ele>366</ele>
        <time>2019-04-17T16:55:31Z</time>
      </trkpt>
      <trkpt lat="45.06897" lon="7.37388">
        <ele>363</ele>
        <time>2019-04-17T16:56:31Z</time>
      </trkpt>
      <trkpt lat="45.06823" lon="7.37498">
        <ele>357</ele>
        <time>2019-04-17T16:57:31Z</time>
      </trkpt>
      <trkpt lat="45.06781" lon="7.37556">
        <ele>358</ele>
        <time>2019-04-17T16:58:31Z</time>
      </trkpt>
      <trkpt lat="45.06756" lon="7.37585">
        <ele>355</ele>
        <time>2019-04-17T16:59:31Z</time>
      </trkpt>
      <trkpt lat="45.06642" lon="7.37698">
        <ele>364</ele>
        <time>2019-04-17T17:00:31Z</time>
      </trkpt>
      <trkpt lat="45.06619" lon="7.37709">
        <ele>368</ele>
        <time>2019-04-17T17:01:31Z</time>
      </trkpt>
      <trkpt lat="45.0657" lon="7.37726">
        <ele>375</ele>
        <time>2019-04-17T17:02:31Z</time>
      </trkpt>
      <trkpt lat="45.06553" lon="7.37735">
        <ele>376</ele>
        <time>2019-04-17T17:03:31Z</time>
      </trkpt>
      <trkpt lat="45.06514" lon="7.37762">
        <ele>375</ele>
        <time>2019-04-17T17:04:31Z</time>
      </trkpt>
      <trkpt lat="45.06483" lon="7.37792">
        <ele>375</ele>
        <time>2019-04-17T17:05:31Z</time>
      </trkpt>
      <trkpt lat="45.06449" lon="7.37827">
        <ele>374</ele>
        <time>2019-04-17T17:06:31Z</time>
      </trkpt>
      <trkpt lat="45.06428" lon="7.37854">
        <ele>373</ele>
        <time>2019-04-17T17:07:31Z</time>
      </trkpt>
      <trkpt lat="45.06393" lon="7.3791">
        <ele>367</ele>
        <time>2019-04-17T17:08:31Z</time>
      </trkpt>
      <trkpt lat="45.06339" lon="7.37989">
        <ele>360</ele>
        <time>2019-04-17T17:09:31Z</time>
      </trkpt>
      <trkpt lat="45.06236" lon="7.38069">
        <ele>368</ele>
        <time>2019-04-17T17:10:31Z</time>
      </trkpt>
      <trkpt lat="45.06183" lon="7.38143">
        <ele>367</ele>
        <time>2019-04-17T17:11:31Z</time>
      </trkpt>
      <trkpt lat="45.06116" lon="7.38205">
        <ele>370</ele>
        <time>2019-04-17T17:12:31Z</time>
      </trkpt>
      <trkpt lat="45.06096" lon="7.38244">
        <ele>366</ele>
        <time>2019-04-17T17:13:31Z</time>
      </trkpt>
      <trkpt lat="45.06084" lon="7.3828">
        <ele>364</ele>
        <time>2019-04-17T17:14:31Z</time>
      </trkpt>
      <trkpt lat="45.06025" lon="7.38512">
        <ele>365</ele>
        <time>2019-04-17T17:15:31Z</time>
      </trkpt>
      <trkpt lat="45.06002" lon="7.38613">
        <ele>363</ele>
        <time>2019-04-17T17:16:31Z</time>
      </trkpt>
      <trkpt lat="45.06001" lon="7.38685">
        <ele>360</ele>
        <time>2019-04-17T17:17:31Z</time>
      </trkpt>
      <trkpt lat="45.06024" lon="7.38802">
        <ele>360</ele>
        <time>2019-04-17T17:18:31Z</time>
      </trkpt>
      <trkpt lat="45.06073" lon="7.38967">
        <ele>355</ele>
        <time>2019-04-17T17:19:31Z</time>
      </trkpt>
      <trkpt lat="45.06102" lon="7.39019">
        <ele>355</ele>
        <time>2019-04-17T17:20:31Z</time>
      </trkpt>
      <trkpt lat="45.06191" lon="7.39192">
        <ele>357</ele>
        <time>2019-04-17T17:21:31Z</time>
      </trkpt>
      <trkpt lat="45.06198" lon="7.39224">
        <ele>358</ele>
        <time>2019-04-17T17:22:31Z</time>
      </trkpt>
      <trkpt lat="45.06194" lon="7.39233">
        <ele>359</ele>
        <time>2019-04-17T17:23:31Z</time>
      </trkpt>
      <trkpt lat="45.06195" lon="7.39244">
        <ele>360</ele>
        <time>2019-04-17T17:24:31Z</time>
      </trkpt>
      <trkpt lat="45.06178" lon="7.39273">
        <ele>364</ele>
        <time>2019-04-17T17:25:31Z</time>
      </trkpt>
      <trkpt lat="45.06167" lon="7.39278">
        <ele>365</ele>
        <time>2019-04-17T17:26:31Z</time>
      </trkpt>
      <trkpt lat="45.06156" lon="7.39277">
        <ele>365</ele>
        <time>2019-04-17T17:27:31Z</time>
      </trkpt>
      <trkpt lat="45.06134" lon="7.39264">
        <ele>364</ele>
        <time>2019-04-17T17:28:31Z</time>
      </trkpt>
      <trkpt lat="45.06074" lon="7.39217">
        <ele>362</ele>
        <time>2019-04-17T17:29:31Z</time>
      </trkpt>
      <trkpt lat="45.06064" lon="7.39215">
        <ele>362</ele>
        <time>2019-04-17T17:30:31Z</time>
      </trkpt>
      <trkpt lat="45.06054" lon="7.39218">
        <ele>362</ele>
        <time>2019-04-17T17:31:31Z</time>
      </trkpt>
      <trkpt lat="45.06045" lon="7.39223">
        <ele>362</ele>
        <time>2019-04-17T17:32:31Z</time>
      </trkpt>
      <trkpt lat="45.06026" lon="7.39225">
        <ele>362</ele>
        <time>2019-04-17T17:33:31Z</time>
      </trkpt>
      <trkpt lat="45.0602" lon="7.39221">
        <ele>362</ele>
        <time>2019-04-17T17:34:31Z</time>
      </trkpt>
      <trkpt lat="45.06013" lon="7.39219">
        <ele>362</ele>
        <time>2019-04-17T17:35:31Z</time>
      </trkpt>
      <trkpt lat="45.06006" lon="7.39221">
        <ele>362</ele>
        <time>2019-04-17T17:36:31Z</time>
      </trkpt>
      <trkpt lat="45.06" lon="7.39225">
        <ele>362</ele>
        <time>2019-04-17T17:37:31Z</time>
      </trkpt>
      <trkpt lat="45.05995" lon="7.39232">
        <ele>362</ele>
        <time>2019-04-17T17:38:31Z</time>
      </trkpt>
      <trkpt lat="45.05991" lon="7.39242">
        <ele>362</ele>
        <time>2019-04-17T17:39:31Z</time>
      </trkpt>
      <trkpt lat="45.0599" lon="7.39252">
        <ele>363</ele>
        <time>2019-04-17T17:40:31Z</time>
      </trkpt>
      <trkpt lat="45.05979" lon="7.39265">
        <ele>363</ele>
        <time>2019-04-17T17:41:31Z</time>
      </trkpt>
      <trkpt lat="45.05938" lon="7.39301">
        <ele>362</ele>
        <time>2019-04-17T17:42:31Z</time>
      </trkpt>
      <trkpt lat="45.05909" lon="7.39343">
        <ele>362</ele>
        <time>2019-04-17T17:43:31Z</time>
      </trkpt>
      <trkpt lat="45.05747" lon="7.39544">
        <ele>367</ele>
        <time>2019-04-17T17:44:31Z</time>
      </trkpt>
      <trkpt lat="45.05738" lon="7.39554">
        <ele>367</ele>
        <time>2019-04-17T17:45:31Z</time>
      </trkpt>
      <trkpt lat="45.05721" lon="7.39566">
        <ele>367</ele>
        <time>2019-04-17T17:46:31Z</time>
      </trkpt>
      <trkpt lat="45.05694" lon="7.39574">
        <ele>366</ele>
        <time>2019-04-17T17:47:31Z</time>
      </trkpt>
      <trkpt lat="45.05286" lon="7.39675">
        <ele>367</ele>
        <time>2019-04-17T17:48:31Z</time>
      </trkpt>
      <trkpt lat="45.05273" lon="7.39679">
        <ele>366</ele>
        <time>2019-04-17T17:49:31Z</time>
      </trkpt>
      <trkpt lat="45.05251" lon="7.39692">
        <ele>366</ele>
        <time>2019-04-17T17:50:31Z</time>
      </trkpt>
      <trkpt lat="45.0524" lon="7.397">
        <ele>366</ele>
        <time>2019-04-17T17:51:31Z</time>
      </trkpt>
      <trkpt lat="45.05217" lon="7.39731">
        <ele>367</ele>
        <time>2019-04-17T17:52:31Z</time>
      </trkpt>
      <trkpt lat="45.05206" lon="7.39751">
        <ele>368</ele>
        <time>2019-04-17T17:53:31Z</time>
      </trkpt>
      <trkpt lat="45.04943" lon="7.40297">
        <ele>366</ele>
        <time>2019-04-17T17:54:31Z</time>
      </trkpt>
      <trkpt lat="45.04917" lon="7.40341">
        <ele>365</ele>
        <time>2019-04-17T17:55:31Z</time>
      </trkpt>
      <trkpt lat="45.04157" lon="7.41371">
        <ele>395</ele>
        <time>2019-04-17T17:56:31Z</time>
      </trkpt>
      <trkpt lat="45.04141" lon="7.41406">
        <ele>400</ele>
        <time>2019-04-17T17:57:31Z</time>
      </trkpt>
      <trkpt lat="45.04137" lon="7.41428">
        <ele>401</ele>
        <time>2019-04-17T17:58:31Z</time>
      </trkpt>
      <trkpt lat="45.04135" lon="7.4145">
        <ele>402</ele>
        <time>2019-04-17T17:59:31Z</time>
      </trkpt>
      <trkpt lat="45.04135" lon="7.41499">
        <ele>402</ele>
        <time>2019-04-17T18:00:31Z</time>
      </trkpt>
      <trkpt lat="45.04131" lon="7.41536">
        <ele>402</ele>
        <time>2019-04-17T18:01:31Z</time>
      </trkpt>
      <trkpt lat="45.0412" lon="7.41566">
        <ele>402</ele>
        <time>2019-04-17T18:02:31Z</time>
      </trkpt>
      <trkpt lat="45.04108" lon="7.41583">
        <ele>401</ele>
        <time>2019-04-17T18:03:31Z</time>
      </trkpt>
      <trkpt lat="45.03871" lon="7.41873">
        <ele>379</ele>
        <time>2019-04-17T18:04:31Z</time>
      </trkpt>
      <trkpt lat="45.0384" lon="7.419">
        <ele>378</ele>
        <time>2019-04-17T18:05:31Z</time>
      </trkpt>
      <trkpt lat="45.03825" lon="7.41909">
        <ele>377</ele>
        <time>2019-04-17T18:06:31Z</time>
      </trkpt>
      <trkpt lat="45.03791" lon="7.41923">
        <ele>376</ele>
        <time>2019-04-17T18:07:31Z</time>
      </trkpt>
      <trkpt lat="45.03503" lon="7.41995">
        <ele>371</ele>
        <time>2019-04-17T18:08:31Z</time>
      </trkpt>
      <trkpt lat="45.03482" lon="7.42005">
        <ele>373</ele>
        <time>2019-04-17T18:09:31Z</time>
      </trkpt>
      <trkpt lat="45.03477" lon="7.4201">
        <ele>373</ele>
        <time>2019-04-17T18:10:31Z</time>
      </trkpt>
      <trkpt lat="45.03472" lon="7.42016">
        <ele>373</ele>
        <time>2019-04-17T18:11:31Z</time>
      </trkpt>
      <trkpt lat="45.03463" lon="7.42032">
        <ele>374</ele>
        <time>2019-04-17T18:12:31Z</time>
      </trkpt>
      <trkpt lat="45.03459" lon="7.42042">
        <ele>375</ele>
        <time>2019-04-17T18:13:31Z</time>
      </trkpt>
      <trkpt lat="45.03455" lon="7.42064">
        <ele>375</ele>
        <time>2019-04-17T18:14:31Z</time>
      </trkpt>
      <trkpt lat="45.03453" lon="7.42101">
        <ele>375</ele>
        <time>2019-04-17T18:15:31Z</time>
      </trkpt>
      <trkpt lat="45.0345" lon="7.42098">
        <ele>376</ele>
        <time>2019-04-17T18:16:31Z</time>
      </trkpt>
      <trkpt lat="45.03443" lon="7.42096">
        <ele>376</ele>
        <time>2019-04-17T18:17:31Z</time>
      </trkpt>
      <trkpt lat="45.03438" lon="7.42101">
        <ele>377</ele>
        <time>2019-04-17T18:18:31Z</time>
      </trkpt>
      <trkpt lat="45.03436" lon="7.4211">
        <ele>377</ele>
        <time>2019-04-17T18:19:31Z</time>
      </trkpt>
      <trkpt lat="45.03437" lon="7.42118">
        <ele>377</ele>
        <time>2019-04-17T18:20:31Z</time>
      </trkpt>
      <trkpt lat="45.03442" lon="7.42124">
        <ele>377</ele>
        <time>2019-04-17T18:21:31Z</time>
      </trkpt>
      <trkpt lat="45.03445" lon="7.42124">
        <ele>376</ele>
        <time>2019-04-17T18:22:31Z</time>
      </trkpt>
      <trkpt lat="45.03451" lon="7.42121">
        <ele>375</ele>
        <time>2019-04-17T18:23:31Z</time>
      </trkpt>
      <trkpt lat="45.03451" lon="7.42149">
        <ele>375</ele>
        <time>2019-04-17T18:24:31Z</time>
      </trkpt>
      <trkpt lat="45.03418" lon="7.42997">
        <ele>364</ele>
        <time>2019-04-17T18:25:31Z</time>
      </trkpt>
      <trkpt lat="45.03412" lon="7.43097">
        <ele>363</ele>
        <time>2019-04-17T18:26:31Z</time>
      </trkpt>
      <trkpt lat="45.03405" lon="7.43149">
        <ele>362</ele>
        <time>2019-04-17T18:27:31Z</time>
      </trkpt>
      <trkpt lat="45.03397" lon="7.43191">
        <ele>361</ele>
        <time>2019-04-17T18:28:31Z</time>
      </trkpt>
      <trkpt lat="45.03375" lon="7.43291">
        <ele>360</ele>
        <time>2019-04-17T18:29:31Z</time>
      </trkpt>
      <trkpt lat="45.03348" lon="7.43378">
        <ele>359</ele>
        <time>2019-04-17T18:30:31Z</time>
      </trkpt>
      <trkpt lat="45.02389" lon="7.45862">
        <ele>329</ele>
        <time>2019-04-17T18:31:31Z</time>
      </trkpt>
      <trkpt lat="45.02344" lon="7.45972">
        <ele>327</ele>
        <time>2019-04-17T18:32:31Z</time>
      </trkpt>
      <trkpt lat="45.02335" lon="7.45988">
        <ele>327</ele>
        <time>2019-04-17T18:33:31Z</time>
      </trkpt>
      <trkpt lat="45.02257" lon="7.46106">
        <ele>328</ele>
        <time>2019-04-17T18:34:31Z</time>
      </trkpt>
      <trkpt lat="45.02047" lon="7.46421">
        <ele>324</ele>
        <time>2019-04-17T18:35:31Z</time>
      </trkpt>
      <trkpt lat="45.02023" lon="7.46454">
        <ele>324</ele>
        <time>2019-04-17T18:36:31Z</time>
      </trkpt>
      <trkpt lat="45.02019" lon="7.46457">
        <ele>324</ele>
        <time>2019-04-17T18:37:31Z</time>
      </trkpt>
      <trkpt lat="45.02015" lon="7.4647">
        <ele>324</ele>
        <time>2019-04-17T18:38:31Z</time>
      </trkpt>
      <trkpt lat="45.01992" lon="7.46481">
        <ele>324</ele>
        <time>2019-04-17T18:39:31Z</time>
      </trkpt>
      <trkpt lat="45.01987" lon="7.4648">
        <ele>324</ele>
        <time>2019-04-17T18:40:31Z</time>
      </trkpt>
      <trkpt lat="45.01981" lon="7.46484">
        <ele>323</ele>
        <time>2019-04-17T18:41:31Z</time>
      </trkpt>
      <trkpt lat="45.01963" lon="7.46489">
        <ele>323</ele>
        <time>2019-04-17T18:42:31Z</time>
      </trkpt>
      <trkpt lat="45.01608" lon="7.46529">
        <ele>318</ele>
        <time>2019-04-17T18:43:31Z</time>
      </trkpt>
      <trkpt lat="45.0159" lon="7.46541">
        <ele>318</ele>
        <time>2019-04-17T18:44:31Z</time>
      </trkpt>
      <trkpt lat="45.01584" lon="7.46535">
        <ele>318</ele>
        <time>2019-04-17T18:45:31Z</time>
      </trkpt>
      <trkpt lat="45.01578" lon="7.46536">
        <ele>318</ele>
        <time>2019-04-17T18:46:31Z</time>
      </trkpt>
      <trkpt lat="45.01575" lon="7.46538">
        <ele>318</ele>
        <time>2019-04-17T18:47:31Z</time>
      </trkpt>
      <trkpt lat="45.01571" lon="7.46547">
        <ele>318</ele>
        <time>2019-04-17T18:48:31Z</time>
      </trkpt>
      <trkpt lat="45.0156" lon="7.4654">
        <ele>317</ele>
        <time>2019-04-17T18:49:31Z</time>
      </trkpt>
      <trkpt lat="45.01549" lon="7.46537">
        <ele>317</ele>
        <time>2019-04-17T18:50:31Z</time>
      </trkpt>
      <trkpt lat="45.01526" lon="7.46539">
        <ele>316</ele>
        <time>2019-04-17T18:51:31Z</time>
      </trkpt>
      <trkpt lat="45.00205" lon="7.46686">
        <ele>306</ele>
        <time>2019-04-17T18:52:31Z</time>
      </trkpt>
      <trkpt lat="45.00205" lon="7.46681">
        <ele>306</ele>
        <time>2019-04-17T18:53:31Z</time>
      </trkpt>
      <trkpt lat="45.00201" lon="7.46674">
        <ele>306</ele>
        <time>2019-04-17T18:54:31Z</time>
      </trkpt>
      <trkpt lat="45.00195" lon="7.46672">
        <ele>306</ele>
        <time>2019-04-17T18:55:31Z</time>
      </trkpt>
      <trkpt lat="45.00189" lon="7.46675">
        <ele>306</ele>
        <time>2019-04-17T18:56:31Z</time>
      </trkpt>
      <trkpt lat="45.00185" lon="7.46683">
        <ele>306</ele>
        <time>2019-04-17T18:57:31Z</time>
      </trkpt>
      <trkpt lat="45.00185" lon="7.46688">
        <ele>305</ele>
        <time>2019-04-17T18:58:31Z</time>
      </trkpt>
      <trkpt lat="44.99881" lon="7.4672">
        <ele>303</ele>
        <time>2019-04-17T18:59:31Z</time>
      </trkpt>
      <trkpt lat="44.99236" lon="7.46796">
        <ele>298</ele>
        <time>2019-04-17T19:00:31Z</time>
      </trkpt>
      <trkpt lat="44.99046" lon="7.46816">
        <ele>297</ele>
        <time>2019-04-17T19:01:31Z</time>
      </trkpt>
      <trkpt lat="44.99022" lon="7.46815">
        <ele>297</ele>
        <time>2019-04-17T19:02:31Z</time>
      </trkpt>
      <trkpt lat="44.99001" lon="7.46809">
        <ele>297</ele>
        <time>2019-04-17T19:03:31Z</time>
      </trkpt>
      <trkpt lat="44.98998" lon="7.46806">
        <ele>297</ele>
        <time>2019-04-17T19:04:31Z</time>
      </trkpt>
      <trkpt lat="44.98991" lon="7.46779">
        <ele>298</ele>
        <time>2019-04-17T19:05:31Z</time>
      </trkpt>
      <trkpt lat="44.98982" lon="7.46731">
        <ele>298</ele>
        <time>2019-04-17T19:06:31Z</time>
      </trkpt>
      <trkpt lat="44.98919" lon="7.46458">
        <ele>298</ele>
        <time>2019-04-17T19:07:31Z</time>
      </trkpt>
      <trkpt lat="44.98908" lon="7.4642">
        <ele>297</ele>
        <time>2019-04-17T19:08:31Z</time>
      </trkpt>
      <trkpt lat="44.98891" lon="7.46392">
        <ele>297</ele>
        <time>2019-04-17T19:09:31Z</time>
      </trkpt>
      <trkpt lat="44.98738" lon="7.46213">
        <ele>297</ele>
        <time>2019-04-17T19:10:31Z</time>
      </trkpt>
      <trkpt lat="44.98666" lon="7.46125">
        <ele>295</ele>
        <time>2019-04-17T19:11:31Z</time>
      </trkpt>
      <trkpt lat="44.98563" lon="7.46011">
        <ele>293</ele>
        <time>2019-04-17T19:12:31Z</time>
      </trkpt>
      <trkpt lat="44.98437" lon="7.45864">
        <ele>292</ele>
        <time>2019-04-17T19:13:31Z</time>
      </trkpt>
      <trkpt lat="44.98437" lon="7.4586">
        <ele>292</ele>
        <time>2019-04-17T19:14:31Z</time>
      </trkpt>
      <trkpt lat="44.98436" lon="7.45853">
        <ele>292</ele>
        <time>2019-04-17T19:15:31Z</time>
      </trkpt>
      <trkpt lat="44.98434" lon="7.4585">
        <ele>292</ele>
        <time>2019-04-17T19:16:31Z</time>
      </trkpt>
      <trkpt lat="44.98429" lon="7.45848">
        <ele>292</ele>
        <time>2019-04-17T19:17:31Z</time>
      </trkpt>
      <trkpt lat="44.98424" lon="7.45851">
        <ele>292</ele>
        <time>2019-04-17T19:18:31Z</time>
      </trkpt>
      <trkpt lat="44.98114" lon="7.45491">
        <ele>287</ele>
        <time>2019-04-17T19:19:31Z</time>
      </trkpt>
      <trkpt lat="44.981" lon="7.45474">
        <ele>286</ele>
        <time>2019-04-17T19:20:31Z</time>
      </trkpt>
      <trkpt lat="44.98102" lon="7.45466">
        <ele>286</ele>
        <time>2019-04-17T19:21:31Z</time>
      </trkpt>
      <trkpt lat="44.981" lon="7.45462">
        <ele>286</ele>
        <time>2019-04-17T19:22:31Z</time>
      </trkpt>
      <trkpt lat="44.98094" lon="7.4546">
        <ele>286</ele>
        <time>2019-04-17T19:23:31Z</time>
      </trkpt>
      <trkpt lat="44.98091" lon="7.45463">
        <ele>286</ele>
        <time>2019-04-17T19:24:31Z</time>
      </trkpt>
      <trkpt lat="44.98089" lon="7.45461">
        <ele>286</ele>
        <time>2019-04-17T19:25:31Z</time>
      </trkpt>
      <trkpt lat="44.97833" lon="7.45167">
        <ele>279</ele>
        <time>2019-04-17T19:26:31Z</time>
      </trkpt>
      <trkpt lat="44.97797" lon="7.45123">
        <ele>278</ele>
        <time>2019-04-17T19:27:31Z</time>
      </trkpt>
      <trkpt lat="44.97775" lon="7.45084">
        <ele>277</ele>
        <time>2019-04-17T19:28:31Z</time>
      </trkpt>
      <trkpt lat="44.97708" lon="7.44946">
        <ele>281</ele>
        <time>2019-04-17T19:29:31Z</time>
      </trkpt>
      <trkpt lat="44.97586" lon="7.44687">
        <ele>279</ele>
        <time>2019-04-17T19:30:31Z</time>
      </trkpt>
      <trkpt lat="44.97581" lon="7.44678">
        <ele>279</ele>
        <time>2019-04-17T19:31:31Z</time>
      </trkpt>
      <trkpt lat="44.97566" lon="7.44661">
        <ele>279</ele>
        <time>2019-04-17T19:32:31Z</time>
      </trkpt>
      <trkpt lat="44.97556" lon="7.44646">
        <ele>279</ele>
        <time>2019-04-17T19:33:31Z</time>
      </trkpt>
      <trkpt lat="44.97554" lon="7.44637">
        <ele>279</ele>
        <time>2019-04-17T19:34:31Z</time>
      </trkpt>
      <trkpt lat="44.9755" lon="7.4463">
        <ele>280</ele>
        <time>2019-04-17T19:35:31Z</time>
      </trkpt>
      <trkpt lat="44.97545" lon="7.44624">
        <ele>280</ele>
        <time>2019-04-17T19:36:31Z</time>
      </trkpt>
      <trkpt lat="44.97539" lon="7.44621">
        <ele>280</ele>
        <time>2019-04-17T19:37:31Z</time>
      </trkpt>
      <trkpt lat="44.97533" lon="7.44608">
        <ele>280</ele>
        <time>2019-04-17T19:38:31Z</time>
      </trkpt>
      <trkpt lat="44.97517" lon="7.44586">
        <ele>280</ele>
        <time>2019-04-17T19:39:31Z</time>
      </trkpt>
      <trkpt lat="44.97517" lon="7.44559">
        <ele>280</ele>
        <time>2019-04-17T19:40:31Z</time>
      </trkpt>
      <trkpt lat="44.97519" lon="7.4455">
        <ele>281</ele>
        <time>2019-04-17T19:41:31Z</time>
      </trkpt>
      <trkpt lat="44.97528" lon="7.44533">
        <ele>282</ele>
        <time>2019-04-17T19:42:31Z</time>
      </trkpt>
      <trkpt lat="44.97553" lon="7.44514">
        <ele>283</ele>
        <time>2019-04-17T19:43:31Z</time>
      </trkpt>
      <trkpt lat="44.97578" lon="7.445">
        <ele>284</ele>
        <time>2019-04-17T19:44:31Z</time>
      </trkpt>
      <trkpt lat="44.97582" lon="7.445">
        <ele>284</ele>
        <time>2019-04-17T19:45:31Z</time>
      </trkpt>
      <trkpt lat="44.97578" lon="7.445">
        <ele>284</ele>
        <time>2019-04-17T19:46:31Z</time>
      </trkpt>
      <trkpt lat="44.97566" lon="7.44474">
        <ele>283</ele>
        <time>2019-04-17T19:47:31Z</time>
      </trkpt>
      <trkpt lat="44.97538" lon="7.44403">
        <ele>281</ele>
        <time>2019-04-17T19:48:31Z</time>
      </trkpt>
      <trkpt lat="44.97508" lon="7.44291">
        <ele>279</ele>
        <time>2019-04-17T19:49:31Z</time>
      </trkpt>
      <trkpt lat="44.97465" lon="7.44119">
        <ele>277</ele>
        <time>2019-04-17T19:50:31Z</time>
      </trkpt>
      <trkpt lat="44.97378" lon="7.43868">
        <ele>278</ele>
        <time>2019-04-17T19:51:31Z</time>
      </trkpt>
      <trkpt lat="44.97335" lon="7.43767">
        <ele>275</ele>
        <time>2019-04-17T19:52:31Z</time>
      </trkpt>
      <trkpt lat="44.97309" lon="7.43715">
        <ele>274</ele>
        <time>2019-04-17T19:53:31Z</time>
      </trkpt>
      <trkpt lat="44.97278" lon="7.43674">
        <ele>273</ele>
        <time>2019-04-17T19:54:31Z</time>
      </trkpt>
      <trkpt lat="44.97267" lon="7.43649">
        <ele>273</ele>
        <time>2019-04-17T19:55:31Z</time>
      </trkpt>
      <trkpt lat="44.97139" lon="7.43608">
        <ele>274</ele>
        <time>2019-04-17T19:56:31Z</time>
      </trkpt>
      <trkpt lat="44.97052" lon="7.43569">
        <ele>275</ele>
        <time>2019-04-17T19:57:31Z</time>
      </trkpt>
      <trkpt lat="44.96978" lon="7.43416">
        <ele>274</ele>
        <time>2019-04-17T19:58:31Z</time>
      </trkpt>
      <trkpt lat="44.96947" lon="7.43343">
        <ele>274</ele>
        <time>2019-04-17T19:59:31Z</time>
      </trkpt>
      <trkpt lat="44.96944" lon="7.43285">
        <ele>275</ele>
        <time>2019-04-17T20:00:31Z</time>
      </trkpt>
      <trkpt lat="44.96945" lon="7.43241">
        <ele>276</ele>
        <time>2019-04-17T20:01:31Z</time>
      </trkpt>
      <trkpt lat="44.96941" lon="7.43201">
        <ele>277</ele>
        <time>2019-04-17T20:02:31Z</time>
      </trkpt>
      <trkpt lat="44.96931" lon="7.43165">
        <ele>278</ele>
        <time>2019-04-17T20:03:31Z</time>
      </trkpt>
      <trkpt lat="44.96924" lon="7.43125">
        <ele>279</ele>
        <time>2019-04-17T20:04:31Z</time>
      </trkpt>
      <trkpt lat="44.96934" lon="7.43053">
        <ele>280</ele>
        <time>2019-04-17T20:05:31Z</time>
      </trkpt>
      <trkpt lat="44.96924" lon="7.43011">
        <ele>280</ele>
        <time>2019-04-17T20:06:31Z</time>
      </trkpt>
      <trkpt lat="44.96907" lon="7.42973">
        <ele>279</ele>
        <time>2019-04-17T20:07:31Z</time>
      </trkpt>
      <trkpt lat="44.9688" lon="7.4287">
        <ele>277</ele>
        <time>2019-04-17T20:08:31Z</time>
      </trkpt>
      <trkpt lat="44.96876" lon="7.42794">
        <ele>277</ele>
        <time>2019-04-17T20:09:31Z</time>
      </trkpt>
      <trkpt lat="44.9688" lon="7.42727">
        <ele>277</ele>
        <time>2019-04-17T20:10:31Z</time>
      </trkpt>
      <trkpt lat="44.96881" lon="7.4266">
        <ele>278</ele>
        <time>2019-04-17T20:11:31Z</time>
      </trkpt>
      <trkpt lat="44.96865" lon="7.42599">
        <ele>278</ele>
        <time>2019-04-17T20:12:31Z</time>
      </trkpt>
      <trkpt lat="44.96834" lon="7.42504">
        <ele>278</ele>
        <time>2019-04-17T20:13:31Z</time>
      </trkpt>
      <trkpt lat="44.96816" lon="7.42445">
        <ele>279</ele>
        <time>2019-04-17T20:14:31Z</time>
      </trkpt>
      <trkpt lat="44.96815" lon="7.42366">
        <ele>278</ele>
        <time>2019-04-17T20:15:31Z</time>
      </trkpt>
      <trkpt lat="44.96819" lon="7.42267">
        <ele>279</ele>
        <time>2019-04-17T20:16:31Z</time>
      </trkpt>
      <trkpt lat="44.96831" lon="7.42113">
        <ele>281</ele>
        <time>2019-04-17T20:17:31Z</time>
      </trkpt>
      <trkpt lat="44.96835" lon="7.41994">
        <ele>282</ele>
        <time>2019-04-17T20:18:31Z</time>
      </trkpt>
      <trkpt lat="44.96832" lon="7.41958">
        <ele>282</ele>
        <time>2019-04-17T20:19:31Z</time>
      </trkpt>
      <trkpt lat="44.96825" lon="7.41927">
        <ele>282</ele>
        <time>2019-04-17T20:20:31Z</time>
      </trkpt>
      <trkpt lat="44.96805" lon="7.41879">
        <ele>282</ele>
        <time>2019-04-17T20:21:31Z</time>
      </trkpt>
      <trkpt lat="44.96734" lon="7.41745">
        <ele>284</ele>
        <time>2019-04-17T20:22:31Z</time>
      </trkpt>
      <trkpt lat="44.96683" lon="7.4166">
        <ele>285</ele>
        <time>2019-04-17T20:23:31Z</time>
      </trkpt>
      <trkpt lat="44.96621" lon="7.41578">
        <ele>285</ele>
        <time>2019-04-17T20:24:31Z</time>
      </trkpt>
      <trkpt lat="44.96578" lon="7.41532">
        <ele>287</ele>
        <time>2019-04-17T20:25:31Z</time>
      </trkpt>
      <trkpt lat="44.96552" lon="7.41495">
        <ele>290</ele>
        <time>2019-04-17T20:26:31Z</time>
      </trkpt>
      <trkpt lat="44.96525" lon="7.41421">
        <ele>291</ele>
        <time>2019-04-17T20:27:31Z</time>
      </trkpt>
      <trkpt lat="44.96477" lon="7.41309">
        <ele>289</ele>
        <time>2019-04-17T20:28:31Z</time>
      </trkpt>
      <trkpt lat="44.96404" lon="7.41123">
        <ele>287</ele>
        <time>2019-04-17T20:29:31Z</time>
      </trkpt>
      <trkpt lat="44.96366" lon="7.41035">
        <ele>289</ele>
        <time>2019-04-17T20:30:31Z</time>
      </trkpt>
      <trkpt lat="44.96352" lon="7.40998">
        <ele>290</ele>
        <time>2019-04-17T20:31:31Z</time>
      </trkpt>
      <trkpt lat="44.96341" lon="7.40941">
        <ele>290</ele>
        <time>2019-04-17T20:32:31Z</time>
      </trkpt>
      <trkpt lat="44.9634" lon="7.40904">
        <ele>290</ele>
        <time>2019-04-17T20:33:31Z</time>
      </trkpt>
      <trkpt lat="44.96293" lon="7.40913">
        <ele>290</ele>
        <time>2019-04-17T20:34:31Z</time>
      </trkpt>
      <trkpt lat="44.96166" lon="7.40753">
        <ele>294</ele>
        <time>2019-04-17T20:35:31Z</time>
      </trkpt>
      <trkpt lat="44.96154" lon="7.40725">
        <ele>293</ele>
        <time>2019-04-17T20:36:31Z</time>
      </trkpt>
      <trkpt lat="44.96117" lon="7.40617">
        <ele>291</ele>
        <time>2019-04-17T20:37:31Z</time>
      </trkpt>
      <trkpt lat="44.9609" lon="7.40568">
        <ele>291</ele>
        <time>2019-04-17T20:38:31Z</time>
      </trkpt>
      <trkpt lat="44.96055" lon="7.40521">
        <ele>291</ele>
        <time>2019-04-17T20:39:31Z</time>
      </trkpt>
      <trkpt lat="44.95995" lon="7.40432">
        <ele>293</ele>
        <time>2019-04-17T20:40:31Z</time>
      </trkpt>
      <trkpt lat="44.95969" lon="7.40399">
        <ele>293</ele>
        <time>2019-04-17T20:41:31Z</time>
      </trkpt>
      <trkpt lat="44.95939" lon="7.40382">
        <ele>293</ele>
        <time>2019-04-17T20:42:31Z</time>
      </trkpt>
      <trkpt lat="44.95912" lon="7.40323">
        <ele>292</ele>
        <time>2019-04-17T20:43:31Z</time>
      </trkpt>
      <trkpt lat="44.95833" lon="7.40191">
        <ele>292</ele>
        <time>2019-04-17T20:44:31Z</time>
      </trkpt>
      <trkpt lat="44.95814" lon="7.40153">
        <ele>292</ele>
        <time>2019-04-17T20:45:31Z</time>
      </trkpt>
      <trkpt lat="44.95772" lon="7.40091">
        <ele>291</ele>
        <time>2019-04-17T20:46:31Z</time>
      </trkpt>
      <trkpt lat="44.95748" lon="7.40063">
        <ele>290</ele>
        <time>2019-04-17T20:47:31Z</time>
      </trkpt>
      <trkpt lat="44.95663" lon="7.39985">
        <ele>294</ele>
        <time>2019-04-17T20:48:31Z</time>
      </trkpt>
      <trkpt lat="44.95617" lon="7.39902">
        <ele>295</ele>
        <time>2019-04-17T20:49:31Z</time>
      </trkpt>
      <trkpt lat="44.95574" lon="7.39828">
        <ele>296</ele>
        <time>2019-04-17T20:50:31Z</time>
      </trkpt>
      <trkpt lat="44.95546" lon="7.39792">
        <ele>296</ele>
        <time>2019-04-17T20:51:31Z</time>
      </trkpt>
      <trkpt lat="44.95447" lon="7.3969">
        <ele>297</ele>
        <time>2019-04-17T20:52:31Z</time>
      </trkpt>
      <trkpt lat="44.95405" lon="7.39628">
        <ele>297</ele>
        <time>2019-04-17T20:53:31Z</time>
      </trkpt>
      <trkpt lat="44.95357" lon="7.39527">
        <ele>297</ele>
        <time>2019-04-17T20:54:31Z</time>
      </trkpt>
      <trkpt lat="44.95338" lon="7.39502">
        <ele>297</ele>
        <time>2019-04-17T20:55:31Z</time>
      </trkpt>
      <trkpt lat="44.95322" lon="7.39434">
        <ele>298</ele>
        <time>2019-04-17T20:56:31Z</time>
      </trkpt>
      <trkpt lat="44.9532" lon="7.39383">
        <ele>299</ele>
        <time>2019-04-17T20:57:31Z</time>
      </trkpt>
      <trkpt lat="44.95315" lon="7.39339">
        <ele>300</ele>
        <time>2019-04-17T20:58:31Z</time>
      </trkpt>
      <trkpt lat="44.95317" lon="7.39278">
        <ele>301</ele>
        <time>2019-04-17T20:59:31Z</time>
      </trkpt>
      <trkpt lat="44.95312" lon="7.39233">
        <ele>302</ele>
        <time>2019-04-17T21:00:31Z</time>
      </trkpt>
      <trkpt lat="44.95294" lon="7.39177">
        <ele>303</ele>
        <time>2019-04-17T21:01:31Z</time>
      </trkpt>
      <trkpt lat="44.95242" lon="7.3911">
        <ele>303</ele>
        <time>2019-04-17T21:02:31Z</time>
      </trkpt>
      <trkpt lat="44.95241" lon="7.39056">
        <ele>303</ele>
        <time>2019-04-17T21:03:31Z</time>
      </trkpt>
      <trkpt lat="44.95225" lon="7.39025">
        <ele>303</ele>
        <time>2019-04-17T21:04:31Z</time>
      </trkpt>
      <trkpt lat="44.95183" lon="7.38992">
        <ele>305</ele>
        <time>2019-04-17T21:05:31Z</time>
      </trkpt>
      <trkpt lat="44.95133" lon="7.38924">
        <ele>304</ele>
        <time>2019-04-17T21:06:31Z</time>
      </trkpt>
      <trkpt lat="44.95059" lon="7.38787">
        <ele>305</ele>
        <time>2019-04-17T21:07:31Z</time>
      </trkpt>
      <trkpt lat="44.95056" lon="7.38775">
        <ele>305</ele>
        <time>2019-04-17T21:08:31Z</time>
      </trkpt>
      <trkpt lat="44.95052" lon="7.38741">
        <ele>306</ele>
        <time>2019-04-17T21:09:31Z</time>
      </trkpt>
      <trkpt lat="44.94989" lon="7.38665">
        <ele>311</ele>
        <time>2019-04-17T21:10:31Z</time>
      </trkpt>
      <trkpt lat="44.94948" lon="7.38604">
        <ele>312</ele>
        <time>2019-04-17T21:11:31Z</time>
      </trkpt>
      <trkpt lat="44.94938" lon="7.3858">
        <ele>313</ele>
        <time>2019-04-17T21:12:31Z</time>
      </trkpt>
      <trkpt lat="44.94916" lon="7.38593">
        <ele>312</ele>
        <time>2019-04-17T21:13:31Z</time>
      </trkpt>
      <trkpt lat="44.94891" lon="7.3856">
        <ele>311</ele>
        <time>2019-04-17T21:14:31Z</time>
      </trkpt>
      <trkpt lat="44.94847" lon="7.38479">
        <ele>312</ele>
        <time>2019-04-17T21:15:31Z</time>
      </trkpt>
      <trkpt lat="44.94781" lon="7.3843">
        <ele>311</ele>
        <time>2019-04-17T21:16:31Z</time>
      </trkpt>
      <trkpt lat="44.94709" lon="7.38393">
        <ele>310</ele>
        <time>2019-04-17T21:17:31Z</time>
      </trkpt>
      <trkpt lat="44.94649" lon="7.38357">
        <ele>310</ele>
        <time>2019-04-17T21:18:31Z</time>
      </trkpt>
      <trkpt lat="44.94589" lon="7.38305">
        <ele>311</ele>
        <time>2019-04-17T21:19:31Z</time>
      </trkpt>
      <trkpt lat="44.94543" lon="7.3826">
        <ele>312</ele>
        <time>2019-04-17T21:20:31Z</time>
      </trkpt>
      <trkpt lat="44.94514" lon="7.38215">
        <ele>312</ele>
        <time>2019-04-17T21:21:31Z</time>
      </trkpt>
      <trkpt lat="44.94481" lon="7.38137">
        <ele>313</ele>
        <time>2019-04-17T21:22:31Z</time>
      </trkpt>
      <trkpt lat="44.9445" lon="7.38077">
        <ele>313</ele>
        <time>2019-04-17T21:23:31Z</time>
      </trkpt>
      <trkpt lat="44.94414" lon="7.3802">
        <ele>313</ele>
        <time>2019-04-17T21:24:31Z</time>
      </trkpt>
      <trkpt lat="44.944" lon="7.38014">
        <ele>313</ele>
        <time>2019-04-17T21:25:31Z</time>
      </trkpt>
      <trkpt lat="44.94357" lon="7.38">
        <ele>311</ele>
        <time>2019-04-17T21:26:31Z</time>
      </trkpt>
      <trkpt lat="44.94156" lon="7.37578">
        <ele>311</ele>
        <time>2019-04-17T21:27:31Z</time>
      </trkpt>
      <trkpt lat="44.94113" lon="7.37511">
        <ele>313</ele>
        <time>2019-04-17T21:28:31Z</time>
      </trkpt>
      <trkpt lat="44.94109" lon="7.37497">
        <ele>313</ele>
        <time>2019-04-17T21:29:31Z</time>
      </trkpt>
      <trkpt lat="44.94108" lon="7.37489">
        <ele>313</ele>
        <time>2019-04-17T21:30:31Z</time>
      </trkpt>
      <trkpt lat="44.94131" lon="7.37437">
        <ele>315</ele>
        <time>2019-04-17T21:31:31Z</time>
      </trkpt>
      <trkpt lat="44.94129" lon="7.37426">
        <ele>315</ele>
        <time>2019-04-17T21:32:31Z</time>
      </trkpt>
      <trkpt lat="44.941" lon="7.37394">
        <ele>318</ele>
        <time>2019-04-17T21:33:31Z</time>
      </trkpt>
      <trkpt lat="44.94073" lon="7.37371">
        <ele>319</ele>
        <time>2019-04-17T21:34:31Z</time>
      </trkpt>
      <trkpt lat="44.94051" lon="7.37381">
        <ele>318</ele>
        <time>2019-04-17T21:35:31Z</time>
      </trkpt>
      <trkpt lat="44.94025" lon="7.37312">
        <ele>320</ele>
        <time>2019-04-17T21:36:31Z</time>
      </trkpt>
      <trkpt lat="44.94003" lon="7.37286">
        <ele>318</ele>
        <time>2019-04-17T21:37:31Z</time>
      </trkpt>
      <trkpt lat="44.93978" lon="7.37185">
        <ele>322</ele>
        <time>2019-04-17T21:38:31Z</time>
      </trkpt>
      <trkpt lat="44.93922" lon="7.37109">
        <ele>326</ele>
        <time>2019-04-17T21:39:31Z</time>
      </trkpt>
      <trkpt lat="44.93874" lon="7.37005">
        <ele>326</ele>
        <time>2019-04-17T21:40:31Z</time>
      </trkpt>
      <trkpt lat="44.93839" lon="7.36916">
        <ele>326</ele>
        <time>2019-04-17T21:41:31Z</time>
      </trkpt>
      <trkpt lat="44.93825" lon="7.36819">
        <ele>331</ele>
        <time>2019-04-17T21:42:31Z</time>
      </trkpt>
      <trkpt lat="44.93802" lon="7.36754">
        <ele>332</ele>
        <time>2019-04-17T21:43:31Z</time>
      </trkpt>
      <trkpt lat="44.93817" lon="7.36659">
        <ele>336</ele>
        <time>2019-04-17T21:44:31Z</time>
      </trkpt>
      <trkpt lat="44.93812" lon="7.36567">
        <ele>337</ele>
        <time>2019-04-17T21:45:31Z</time>
      </trkpt>
      <trkpt lat="44.93769" lon="7.36489">
        <ele>335</ele>
        <time>2019-04-17T21:46:31Z</time>
      </trkpt>
      <trkpt lat="44.93724" lon="7.36465">
        <ele>332</ele>
        <time>2019-04-17T21:47:31Z</time>
      </trkpt>
      <trkpt lat="44.9369" lon="7.36507">
        <ele>329</ele>
        <time>2019-04-17T21:48:31Z</time>
      </trkpt>
      <trkpt lat="44.93652" lon="7.36542">
        <ele>328</ele>
        <time>2019-04-17T21:49:31Z</time>
      </trkpt>
      <trkpt lat="44.9354" lon="7.36573">
        <ele>329</ele>
        <time>2019-04-17T21:50:31Z</time>
      </trkpt>
      <trkpt lat="44.93526" lon="7.36548">
        <ele>330</ele>
        <time>2019-04-17T21:51:31Z</time>
      </trkpt>
      <trkpt lat="44.93515" lon="7.36536">
        <ele>331</ele>
        <time>2019-04-17T21:52:31Z</time>
      </trkpt>
      <trkpt lat="44.93504" lon="7.36533">
        <ele>331</ele>
        <time>2019-04-17T21:53:31Z</time>
      </trkpt>
      <trkpt lat="44.93447" lon="7.36529">
        <ele>333</ele>
        <time>2019-04-17T21:54:31Z</time>
      </trkpt>
      <trkpt lat="44.93441" lon="7.36547">
        <ele>333</ele>
        <time>2019-04-17T21:55:31Z</time>
      </trkpt>
      <trkpt lat="44.93396" lon="7.36527">
        <ele>334</ele>
        <time>2019-04-17T21:56:31Z</time>
      </trkpt>
      <trkpt lat="44.93338" lon="7.36523">
        <ele>334</ele>
        <time>2019-04-17T21:57:31Z</time>
      </trkpt>
      <trkpt lat="44.93282" lon="7.36511">
        <ele>333</ele>
        <time>2019-04-17T21:58:31Z</time>
      </trkpt>
      <trkpt lat="44.93211" lon="7.36479">
        <ele>332</ele>
        <time>2019-04-17T21:59:31Z</time>
      </trkpt>
      <trkpt lat="44.93179" lon="7.36471">
        <ele>331</ele>
        <time>2019-04-17T22:00:31Z</time>
      </trkpt>
      <trkpt lat="44.93113" lon="7.36484">
        <ele>330</ele>
        <time>2019-04-17T22:01:31Z</time>
      </trkpt>
      <trkpt lat="44.93071" lon="7.36477">
        <ele>329</ele>
        <time>2019-04-17T22:02:31Z</time>
      </trkpt>
      <trkpt lat="44.92981" lon="7.36407">
        <ele>331</ele>
        <time>2019-04-17T22:03:31Z</time>
      </trkpt>
      <trkpt lat="44.92926" lon="7.36355">
        <ele>332</ele>
        <time>2019-04-17T22:04:31Z</time>
      </trkpt>
      <trkpt lat="44.92858" lon="7.36328">
        <ele>332</ele>
        <time>2019-04-17T22:05:31Z</time>
      </trkpt>
      <trkpt lat="44.92807" lon="7.3633">
        <ele>332</ele>
        <time>2019-04-17T22:06:31Z</time>
      </trkpt>
      <trkpt lat="44.9266" lon="7.36284">
        <ele>330</ele>
        <time>2019-04-17T22:07:31Z</time>
      </trkpt>
      <trkpt lat="44.92576" lon="7.36264">
        <ele>330</ele>
        <time>2019-04-17T22:08:31Z</time>
      </trkpt>
      <trkpt lat="44.92494" lon="7.36255">
        <ele>329</ele>
        <time>2019-04-17T22:09:31Z</time>
      </trkpt>
      <trkpt lat="44.92333" lon="7.36185">
        <ele>330</ele>
        <time>2019-04-17T22:10:31Z</time>
      </trkpt>
      <trkpt lat="44.92232" lon="7.36137">
        <ele>330</ele>
        <time>2019-04-17T22:11:31Z</time>
      </trkpt>
      <trkpt lat="44.92048" lon="7.36027">
        <ele>327</ele>
        <time>2019-04-17T22:12:31Z</time>
      </trkpt>
      <trkpt lat="44.9192" lon="7.35967">
        <ele>329</ele>
        <time>2019-04-17T22:13:31Z</time>
      </trkpt>
      <trkpt lat="44.91908" lon="7.35956">
        <ele>330</ele>
        <time>2019-04-17T22:14:31Z</time>
      </trkpt>
      <trkpt lat="44.91889" lon="7.35946">
        <ele>331</ele>
        <time>2019-04-17T22:15:31Z</time>
      </trkpt>
      <trkpt lat="44.91852" lon="7.35939">
        <ele>332</ele>
        <time>2019-04-17T22:16:31Z</time>
      </trkpt>
      <trkpt lat="44.91685" lon="7.35914">
        <ele>332</ele>
        <time>2019-04-17T22:17:31Z</time>
      </trkpt>
      <trkpt lat="44.91624" lon="7.35901">
        <ele>331</ele>
        <time>2019-04-17T22:18:31Z</time>
      </trkpt>
      <trkpt lat="44.91601" lon="7.35888">
        <ele>331</ele>
        <time>2019-04-17T22:19:31Z</time>
      </trkpt>
      <trkpt lat="44.91537" lon="7.35833">
        <ele>328</ele>
        <time>2019-04-17T22:20:31Z</time>
      </trkpt>
      <trkpt lat="44.91504" lon="7.35818">
        <ele>326</ele>
        <time>2019-04-17T22:21:31Z</time>
      </trkpt>
      <trkpt lat="44.91476" lon="7.3581">
        <ele>327</ele>
        <time>2019-04-17T22:22:31Z</time>
      </trkpt>
      <trkpt lat="44.91465" lon="7.35794">
        <ele>327</ele>
        <time>2019-04-17T22:23:31Z</time>
      </trkpt>
      <trkpt lat="44.91467" lon="7.35773">
        <ele>327</ele>
        <time>2019-04-17T22:24:31Z</time>
      </trkpt>
      <trkpt lat="44.91473" lon="7.35749">
        <ele>327</ele>
        <time>2019-04-17T22:25:31Z</time>
      </trkpt>
      <trkpt lat="44.91471" lon="7.35719">
        <ele>327</ele>
        <time>2019-04-17T22:26:31Z</time>
      </trkpt>
      <trkpt lat="44.91461" lon="7.35687">
        <ele>328</ele>
        <time>2019-04-17T22:27:31Z</time>
      </trkpt>
      <trkpt lat="44.91449" lon="7.35675">
        <ele>328</ele>
        <time>2019-04-17T22:28:31Z</time>
      </trkpt>
      <trkpt lat="44.91437" lon="7.35671">
        <ele>328</ele>
        <time>2019-04-17T22:29:31Z</time>
      </trkpt>
      <trkpt lat="44.91359" lon="7.35676">
        <ele>328</ele>
        <time>2019-04-17T22:30:31Z</time>
      </trkpt>
      <trkpt lat="44.91325" lon="7.35769">
        <ele>328</ele>
        <time>2019-04-17T22:31:31Z</time>
      </trkpt>
      <trkpt lat="44.91264" lon="7.35738">
        <ele>329</ele>
        <time>2019-04-17T22:32:31Z</time>
      </trkpt>
      <trkpt lat="44.91202" lon="7.35717">
        <ele>329</ele>
        <time>2019-04-17T22:33:31Z</time>
      </trkpt>
      <trkpt lat="44.91125" lon="7.35705">
        <ele>329</ele>
        <time>2019-04-17T22:34:31Z</time>
      </trkpt>
      <trkpt lat="44.91066" lon="7.35699">
        <ele>329</ele>
        <time>2019-04-17T22:35:31Z</time>
      </trkpt>
      <trkpt lat="44.91006" lon="7.35677">
        <ele>332</ele>
        <time>2019-04-17T22:36:31Z</time>
      </trkpt>
      <trkpt lat="44.90935" lon="7.35671">
        <ele>331</ele>
        <time>2019-04-17T22:37:31Z</time>
      </trkpt>
      <trkpt lat="44.90912" lon="7.3566">
        <ele>331</ele>
        <time>2019-04-17T22:38:31Z</time>
      </trkpt>
      <trkpt lat="44.90802" lon="7.3566">
        <ele>333</ele>
        <time>2019-04-17T22:39:31Z</time>
      </trkpt>
      <trkpt lat="44.90768" lon="7.35654">
        <ele>333</ele>
        <time>2019-04-17T22:40:31Z</time>
      </trkpt>
      <trkpt lat="44.90708" lon="7.35632">
        <ele>335</ele>
        <time>2019-04-17T22:41:31Z</time>
      </trkpt>
      <trkpt lat="44.90596" lon="7.35589">
        <ele>337</ele>
        <time>2019-04-17T22:42:31Z</time>
      </trkpt>
      <trkpt lat="44.90474" lon="7.3557">
        <ele>337</ele>
        <time>2019-04-17T22:43:31Z</time>
      </trkpt>
      <trkpt lat="44.90423" lon="7.35552">
        <ele>339</ele>
        <time>2019-04-17T22:44:31Z</time>
      </trkpt>
      <trkpt lat="44.90347" lon="7.35559">
        <ele>341</ele>
        <time>2019-04-17T22:45:31Z</time>
      </trkpt>
      <trkpt lat="44.90285" lon="7.35574">
        <ele>341</ele>
        <time>2019-04-17T22:46:31Z</time>
      </trkpt>
      <trkpt lat="44.90236" lon="7.35592">
        <ele>341</ele>
        <time>2019-04-17T22:47:31Z</time>
      </trkpt>
      <trkpt lat="44.90108" lon="7.35609">
        <ele>342</ele>
        <time>2019-04-17T22:48:31Z</time>
      </trkpt>
      <trkpt lat="44.90038" lon="7.35638">
        <ele>345</ele>
        <time>2019-04-17T22:49:31Z</time>
      </trkpt>
      <trkpt lat="44.8991" lon="7.35736">
        <ele>349</ele>
        <time>2019-04-17T22:50:31Z</time>
      </trkpt>
      <trkpt lat="44.89484" lon="7.3557">
        <ele>347</ele>
        <time>2019-04-17T22:51:31Z</time>
      </trkpt>
      <trkpt lat="44.89458" lon="7.35554">
        <ele>347</ele>
        <time>2019-04-17T22:52:31Z</time>
      </trkpt>
      <trkpt lat="44.89434" lon="7.35535">
        <ele>346</ele>
        <time>2019-04-17T22:53:31Z</time>
      </trkpt>
      <trkpt lat="44.89425" lon="7.35525">
        <ele>346</ele>
        <time>2019-04-17T22:54:31Z</time>
      </trkpt>
      <trkpt lat="44.89417" lon="7.35515">
        <ele>346</ele>
        <time>2019-04-17T22:55:31Z</time>
      </trkpt>
      <trkpt lat="44.89403" lon="7.35493">
        <ele>346</ele>
        <time>2019-04-17T22:56:31Z</time>
      </trkpt>
      <trkpt lat="44.89378" lon="7.3542">
        <ele>348</ele>
        <time>2019-04-17T22:57:31Z</time>
      </trkpt>
      <trkpt lat="44.89384" lon="7.35418">
        <ele>348</ele>
        <time>2019-04-17T22:58:31Z</time>
      </trkpt>
      <trkpt lat="44.89387" lon="7.35411">
        <ele>348</ele>
        <time>2019-04-17T22:59:31Z</time>
      </trkpt>
      <trkpt lat="44.89386" lon="7.35402">
        <ele>348</ele>
        <time>2019-04-17T23:00:31Z</time>
      </trkpt>
      <trkpt lat="44.89382" lon="7.35397">
        <ele>348</ele>
        <time>2019-04-17T23:01:31Z</time>
      </trkpt>
      <trkpt lat="44.89375" lon="7.35396">
        <ele>348</ele>
        <time>2019-04-17T23:02:31Z</time>
      </trkpt>
      <trkpt lat="44.89365" lon="7.35389">
        <ele>348</ele>
        <time>2019-04-17T23:03:31Z</time>
      </trkpt>
      <trkpt lat="44.89352" lon="7.35273">
        <ele>351</ele>
        <time>2019-04-17T23:04:31Z</time>
      </trkpt>
      <trkpt lat="44.89343" lon="7.35235">
        <ele>352</ele>
        <time>2019-04-17T23:05:31Z</time>
      </trkpt>
      <trkpt lat="44.89306" lon="7.35097">
        <ele>353</ele>
        <time>2019-04-17T23:06:31Z</time>
      </trkpt>
      <trkpt lat="44.89299" lon="7.35064">
        <ele>353</ele>
        <time>2019-04-17T23:07:31Z</time>
      </trkpt>
      <trkpt lat="44.89298" lon="7.35026">
        <ele>353</ele>
        <time>2019-04-17T23:08:31Z</time>
      </trkpt>
      <trkpt lat="44.89299" lon="7.35016">
        <ele>353</ele>
        <time>2019-04-17T23:09:31Z</time>
      </trkpt>
      <trkpt lat="44.89302" lon="7.35007">
        <ele>353</ele>
        <time>2019-04-17T23:10:31Z</time>
      </trkpt>
      <trkpt lat="44.89303" lon="7.35">
        <ele>353</ele>
        <time>2019-04-17T23:11:31Z</time>
      </trkpt>
      <trkpt lat="44.89301" lon="7.34989">
        <ele>353</ele>
        <time>2019-04-17T23:12:31Z</time>
      </trkpt>
      <trkpt lat="44.89294" lon="7.34979">
        <ele>353</ele>
        <time>2019-04-17T23:13:31Z</time>
      </trkpt>
      <trkpt lat="44.89288" lon="7.34966">
        <ele>354</ele>
        <time>2019-04-17T23:14:31Z</time>
      </trkpt>
      <trkpt lat="44.89283" lon="7.34922">
        <ele>354</ele>
        <time>2019-04-17T23:15:31Z</time>
      </trkpt>
      <trkpt lat="44.89282" lon="7.34862">
        <ele>355</ele>
        <time>2019-04-17T23:16:31Z</time>
      </trkpt>
      <trkpt lat="44.8928" lon="7.34843">
        <ele>356</ele>
        <time>2019-04-17T23:17:31Z</time>
      </trkpt>
      <trkpt lat="44.89259" lon="7.34721">
        <ele>355</ele>
        <time>2019-04-17T23:18:31Z</time>
      </trkpt>
      <trkpt lat="44.89253" lon="7.34699">
        <ele>355</ele>
        <time>2019-04-17T23:19:31Z</time>
      </trkpt>
      <trkpt lat="44.89222" lon="7.34613">
        <ele>357</ele>
        <time>2019-04-17T23:20:31Z</time>
      </trkpt>
      <trkpt lat="44.89196" lon="7.34545">
        <ele>358</ele>
        <time>2019-04-17T23:21:31Z</time>
      </trkpt>
      <trkpt lat="44.89173" lon="7.34497">
        <ele>359</ele>
        <time>2019-04-17T23:22:31Z</time>
      </trkpt>
      <trkpt lat="44.89162" lon="7.34452">
        <ele>361</ele>
        <time>2019-04-17T23:23:31Z</time>
      </trkpt>
      <trkpt lat="44.89151" lon="7.34394">
        <ele>362</ele>
        <time>2019-04-17T23:24:31Z</time>
      </trkpt>
      <trkpt lat="44.89129" lon="7.3429">
        <ele>363</ele>
        <time>2019-04-17T23:25:31Z</time>
      </trkpt>
      <trkpt lat="44.89112" lon="7.34261">
        <ele>363</ele>
        <time>2019-04-17T23:26:31Z</time>
      </trkpt>
      <trkpt lat="44.89099" lon="7.34247">
        <ele>363</ele>
        <time>2019-04-17T23:27:31Z</time>
      </trkpt>
      <trkpt lat="44.89065" lon="7.34217">
        <ele>364</ele>
        <time>2019-04-17T23:28:31Z</time>
      </trkpt>
      <trkpt lat="44.89056" lon="7.34203">
        <ele>365</ele>
        <time>2019-04-17T23:29:31Z</time>
      </trkpt>
      <trkpt lat="44.89016" lon="7.34098">
        <ele>365</ele>
        <time>2019-04-17T23:30:31Z</time>
      </trkpt>
      <trkpt lat="44.88985" lon="7.34025">
        <ele>365</ele>
        <time>2019-04-17T23:31:31Z</time>
      </trkpt>
      <trkpt lat="44.88962" lon="7.33981">
        <ele>365</ele>
        <time>2019-04-17T23:32:31Z</time>
      </trkpt>
      <trkpt lat="44.88908" lon="7.33895">
        <ele>366</ele>
        <time>2019-04-17T23:33:31Z</time>
      </trkpt>
      <trkpt lat="44.88892" lon="7.33865">
        <ele>367</ele>
        <time>2019-04-17T23:34:31Z</time>
      </trkpt>
      <trkpt lat="44.88877" lon="7.33828">
        <ele>368</ele>
        <time>2019-04-17T23:35:31Z</time>
      </trkpt>
      <trkpt lat="44.88823" lon="7.33646">
        <ele>371</ele>
        <time>2019-04-17T23:36:31Z</time>
      </trkpt>
      <trkpt lat="44.88778" lon="7.3367">
        <ele>371</ele>
        <time>2019-04-17T23:37:31Z</time>
      </trkpt>
    </trkseg>
  </trk>
</gpx>